<?xml version="1.0" encoding="UTF-8" standalone="no" ?>
<gpx xmlns="http://www.topografix.com/GPX/1/1" creator="CompeGPS" version="1.1" xmlns:xsi="http://www.w3.org/2001/XMLSchema-instance" xsi:schemaLocation="http://www.topografix.com/GPX/1/1 http://www.topografix.com/GPX/1/1/gpx.xsd http://www.garmin.com/xmlschemas/GpxExtensions/v3 http://www.garmin.com/xmlschemas/GpxExtensionsv3.xsd http://www.garmin.com/xmlschemas/TrackPointExtension/v1 http://www.garmin.com/xmlschemas/TrackPointExtensionv1.xsd" xmlns:gpxtpx="http://www.garmin.com/xmlschemas/TrackPointExtension/v1">
  <metadata>
    <link href="http://www.compegps.com">
      <text>CompeGPS TEAM, SL</text>
    </link>
    <time>2020-02-13T21:27:12Z</time>
    <bounds maxlat="43.414059" maxlon="1.117454" minlat="43.397108" minlon="1.077512"/>
  </metadata>
  <trk>
    <name>circuit_de_la_bure</name>
    <userMyTwoNav></userMyTwoNav>
    <serialNumber></serialNumber>
    <wpt lat="43.412852" lon="1.117430">
  	<ele>280</ele>
  	<name>Depart</name>
    </wpt>
    <wpt lat="43.408491" lon="1.100805">
  	<ele>287</ele>
  	<name>Bifurcation</name>
    </wpt>
    <wpt lat="43.403730" lon="1.077656">
  	<ele>295</ele>
  	<name>Route D3</name>
    </wpt>
    <wpt lat="43.397151" lon="1.098899">
  	<ele>285</ele>
  	<name>Bif. GR86</name>
    </wpt>
	<trkseg>
      <trkpt lat="43.412852" lon="1.117430">
        <ele>270.0</ele>
        <time>2013-10-01T13:02:27Z</time>
        <name>Depart</name>
      </trkpt>
      <trkpt lat="43.412932" lon="1.117442">
        <ele>270.6</ele>
        <time>2013-10-01T13:03:09Z</time>
      </trkpt>
      <trkpt lat="43.413029" lon="1.117448">
        <ele>270.5</ele>
        <time>2013-10-01T13:03:20Z</time>
      </trkpt>
      <trkpt lat="43.413132" lon="1.117396">
        <ele>270.4</ele>
        <time>2013-10-01T13:03:32Z</time>
      </trkpt>
      <trkpt lat="43.413241" lon="1.117354">
        <ele>270.2</ele>
        <time>2013-10-01T13:03:43Z</time>
      </trkpt>
      <trkpt lat="43.413331" lon="1.117315">
        <ele>270.0</ele>
        <time>2013-10-01T13:03:53Z</time>
      </trkpt>
      <trkpt lat="43.413425" lon="1.117259">
        <ele>269.9</ele>
        <time>2013-10-01T13:04:03Z</time>
      </trkpt>
      <trkpt lat="43.413516" lon="1.117195">
        <ele>269.5</ele>
        <time>2013-10-01T13:04:12Z</time>
      </trkpt>
      <trkpt lat="43.413571" lon="1.117034">
        <ele>269.0</ele>
        <time>2013-10-01T13:04:24Z</time>
      </trkpt>
      <trkpt lat="43.413644" lon="1.116865">
        <ele>268.7</ele>
        <time>2013-10-01T13:04:37Z</time>
      </trkpt>
      <trkpt lat="43.413641" lon="1.116715">
        <ele>268.7</ele>
        <time>2013-10-01T13:04:46Z</time>
      </trkpt>
      <trkpt lat="43.413657" lon="1.116586">
        <ele>268.5</ele>
        <time>2013-10-01T13:04:55Z</time>
      </trkpt>
      <trkpt lat="43.413622" lon="1.116469">
        <ele>268.0</ele>
        <time>2013-10-01T13:05:28Z</time>
      </trkpt>
      <trkpt lat="43.413611" lon="1.116341">
        <ele>267.8</ele>
        <time>2013-10-01T13:05:52Z</time>
      </trkpt>
      <trkpt lat="43.413618" lon="1.116209">
        <ele>267.5</ele>
        <time>2013-10-01T13:06:01Z</time>
      </trkpt>
      <trkpt lat="43.413645" lon="1.116086">
        <ele>267.1</ele>
        <time>2013-10-01T13:06:10Z</time>
      </trkpt>
      <trkpt lat="43.413650" lon="1.115943">
        <ele>266.8</ele>
        <time>2013-10-01T13:06:19Z</time>
      </trkpt>
      <trkpt lat="43.413674" lon="1.115794">
        <ele>266.4</ele>
        <time>2013-10-01T13:06:32Z</time>
      </trkpt>
      <trkpt lat="43.413705" lon="1.115668">
        <ele>266.1</ele>
        <time>2013-10-01T13:06:47Z</time>
      </trkpt>
      <trkpt lat="43.413735" lon="1.115561">
        <ele>265.9</ele>
        <time>2013-10-01T13:06:55Z</time>
      </trkpt>
      <trkpt lat="43.413787" lon="1.115397">
        <ele>265.9</ele>
        <time>2013-10-01T13:07:03Z</time>
      </trkpt>
      <trkpt lat="43.413832" lon="1.115255">
        <ele>266.0</ele>
        <time>2013-10-01T13:07:11Z</time>
      </trkpt>
      <trkpt lat="43.413869" lon="1.115095">
        <ele>266.1</ele>
        <time>2013-10-01T13:07:20Z</time>
      </trkpt>
      <trkpt lat="43.413913" lon="1.114963">
        <ele>266.2</ele>
        <time>2013-10-01T13:07:27Z</time>
      </trkpt>
      <trkpt lat="43.413953" lon="1.114861">
        <ele>266.4</ele>
        <time>2013-10-01T13:07:34Z</time>
      </trkpt>
      <trkpt lat="43.413997" lon="1.114747">
        <ele>266.4</ele>
        <time>2013-10-01T13:07:42Z</time>
      </trkpt>
      <trkpt lat="43.414040" lon="1.114638">
        <ele>266.6</ele>
        <time>2013-10-01T13:07:50Z</time>
      </trkpt>
      <trkpt lat="43.413998" lon="1.114593">
        <ele>266.7</ele>
        <time>2013-10-01T13:08:10Z</time>
      </trkpt>
      <trkpt lat="43.414010" lon="1.114462">
        <ele>267.2</ele>
        <time>2013-10-01T13:08:18Z</time>
      </trkpt>
      <trkpt lat="43.414029" lon="1.114337">
        <ele>268.1</ele>
        <time>2013-10-01T13:08:25Z</time>
      </trkpt>
      <trkpt lat="43.414033" lon="1.114191">
        <ele>269.1</ele>
        <time>2013-10-01T13:08:33Z</time>
      </trkpt>
      <trkpt lat="43.414045" lon="1.114041">
        <ele>269.8</ele>
        <time>2013-10-01T13:08:42Z</time>
      </trkpt>
      <trkpt lat="43.414057" lon="1.113894">
        <ele>270.2</ele>
        <time>2013-10-01T13:08:50Z</time>
      </trkpt>
      <trkpt lat="43.414059" lon="1.113760">
        <ele>270.5</ele>
        <time>2013-10-01T13:08:57Z</time>
      </trkpt>
      <trkpt lat="43.414045" lon="1.113609">
        <ele>270.7</ele>
        <time>2013-10-01T13:09:06Z</time>
      </trkpt>
      <trkpt lat="43.414051" lon="1.113450">
        <ele>270.9</ele>
        <time>2013-10-01T13:09:14Z</time>
      </trkpt>
      <trkpt lat="43.414047" lon="1.113296">
        <ele>271.0</ele>
        <time>2013-10-01T13:09:22Z</time>
      </trkpt>
      <trkpt lat="43.414040" lon="1.113144">
        <ele>271.0</ele>
        <time>2013-10-01T13:09:29Z</time>
      </trkpt>
      <trkpt lat="43.414022" lon="1.113009">
        <ele>270.7</ele>
        <time>2013-10-01T13:09:37Z</time>
      </trkpt>
      <trkpt lat="43.413991" lon="1.112850">
        <ele>270.6</ele>
        <time>2013-10-01T13:09:45Z</time>
      </trkpt>
      <trkpt lat="43.413967" lon="1.112717">
        <ele>270.7</ele>
        <time>2013-10-01T13:09:55Z</time>
      </trkpt>
      <trkpt lat="43.413948" lon="1.112595">
        <ele>270.4</ele>
        <time>2013-10-01T13:10:04Z</time>
      </trkpt>
      <trkpt lat="43.413915" lon="1.112472">
        <ele>270.2</ele>
        <time>2013-10-01T13:10:31Z</time>
      </trkpt>
      <trkpt lat="43.413891" lon="1.112351">
        <ele>270.4</ele>
        <time>2013-10-01T13:10:40Z</time>
      </trkpt>
      <trkpt lat="43.413877" lon="1.112212">
        <ele>270.2</ele>
        <time>2013-10-01T13:10:48Z</time>
      </trkpt>
      <trkpt lat="43.413850" lon="1.112077">
        <ele>270.0</ele>
        <time>2013-10-01T13:10:57Z</time>
      </trkpt>
      <trkpt lat="43.413821" lon="1.111940">
        <ele>269.9</ele>
        <time>2013-10-01T13:11:06Z</time>
      </trkpt>
      <trkpt lat="43.413793" lon="1.111801">
        <ele>269.9</ele>
        <time>2013-10-01T13:11:15Z</time>
      </trkpt>
      <trkpt lat="43.413755" lon="1.111683">
        <ele>269.8</ele>
        <time>2013-10-01T13:11:26Z</time>
      </trkpt>
      <trkpt lat="43.413726" lon="1.111570">
        <ele>269.9</ele>
        <time>2013-10-01T13:11:34Z</time>
      </trkpt>
      <trkpt lat="43.413692" lon="1.111440">
        <ele>269.9</ele>
        <time>2013-10-01T13:11:42Z</time>
      </trkpt>
      <trkpt lat="43.413665" lon="1.111309">
        <ele>269.7</ele>
        <time>2013-10-01T13:11:49Z</time>
      </trkpt>
      <trkpt lat="43.413639" lon="1.111162">
        <ele>269.6</ele>
        <time>2013-10-01T13:11:56Z</time>
      </trkpt>
      <trkpt lat="43.413629" lon="1.111034">
        <ele>269.1</ele>
        <time>2013-10-01T13:12:12Z</time>
      </trkpt>
      <trkpt lat="43.413607" lon="1.110901">
        <ele>268.8</ele>
        <time>2013-10-01T13:12:19Z</time>
      </trkpt>
      <trkpt lat="43.413574" lon="1.110761">
        <ele>268.5</ele>
        <time>2013-10-01T13:12:37Z</time>
      </trkpt>
      <trkpt lat="43.413577" lon="1.110643">
        <ele>268.8</ele>
        <time>2013-10-01T13:12:52Z</time>
      </trkpt>
      <trkpt lat="43.413554" lon="1.110504">
        <ele>269.5</ele>
        <time>2013-10-01T13:13:10Z</time>
      </trkpt>
      <trkpt lat="43.413550" lon="1.110378">
        <ele>269.9</ele>
        <time>2013-10-01T13:13:17Z</time>
      </trkpt>
      <trkpt lat="43.413539" lon="1.110232">
        <ele>270.9</ele>
        <time>2013-10-01T13:13:24Z</time>
      </trkpt>
      <trkpt lat="43.413507" lon="1.110101">
        <ele>271.6</ele>
        <time>2013-10-01T13:13:31Z</time>
      </trkpt>
      <trkpt lat="43.413458" lon="1.109986">
        <ele>272.0</ele>
        <time>2013-10-01T13:13:39Z</time>
      </trkpt>
      <trkpt lat="43.413419" lon="1.109873">
        <ele>272.0</ele>
        <time>2013-10-01T13:13:46Z</time>
      </trkpt>
      <trkpt lat="43.413342" lon="1.109799">
        <ele>272.0</ele>
        <time>2013-10-01T13:13:52Z</time>
      </trkpt>
      <trkpt lat="43.413268" lon="1.109720">
        <ele>271.8</ele>
        <time>2013-10-01T13:14:03Z</time>
      </trkpt>
      <trkpt lat="43.413196" lon="1.109632">
        <ele>271.4</ele>
        <time>2013-10-01T13:14:13Z</time>
      </trkpt>
      <trkpt lat="43.413101" lon="1.109540">
        <ele>270.6</ele>
        <time>2013-10-01T13:14:23Z</time>
      </trkpt>
      <trkpt lat="43.413008" lon="1.109481">
        <ele>269.9</ele>
        <time>2013-10-01T13:14:31Z</time>
      </trkpt>
      <trkpt lat="43.412918" lon="1.109439">
        <ele>269.1</ele>
        <time>2013-10-01T13:14:37Z</time>
      </trkpt>
      <trkpt lat="43.412839" lon="1.109351">
        <ele>268.2</ele>
        <time>2013-10-01T13:14:45Z</time>
      </trkpt>
      <trkpt lat="43.412790" lon="1.109235">
        <ele>268.0</ele>
        <time>2013-10-01T13:14:54Z</time>
      </trkpt>
      <trkpt lat="43.412762" lon="1.109091">
        <ele>268.3</ele>
        <time>2013-10-01T13:15:02Z</time>
      </trkpt>
      <trkpt lat="43.412728" lon="1.108937">
        <ele>269.5</ele>
        <time>2013-10-01T13:15:11Z</time>
      </trkpt>
      <trkpt lat="43.412706" lon="1.108786">
        <ele>270.8</ele>
        <time>2013-10-01T13:15:20Z</time>
      </trkpt>
      <trkpt lat="43.412682" lon="1.108623">
        <ele>271.5</ele>
        <time>2013-10-01T13:15:28Z</time>
      </trkpt>
      <trkpt lat="43.412637" lon="1.108451">
        <ele>272.5</ele>
        <time>2013-10-01T13:15:36Z</time>
      </trkpt>
      <trkpt lat="43.412636" lon="1.108291">
        <ele>273.8</ele>
        <time>2013-10-01T13:15:44Z</time>
      </trkpt>
      <trkpt lat="43.412609" lon="1.108119">
        <ele>274.9</ele>
        <time>2013-10-01T13:15:51Z</time>
      </trkpt>
      <trkpt lat="43.412576" lon="1.107965">
        <ele>275.8</ele>
        <time>2013-10-01T13:15:58Z</time>
      </trkpt>
      <trkpt lat="43.412561" lon="1.107789">
        <ele>276.5</ele>
        <time>2013-10-01T13:16:06Z</time>
      </trkpt>
      <trkpt lat="43.412548" lon="1.107644">
        <ele>276.6</ele>
        <time>2013-10-01T13:16:14Z</time>
      </trkpt>
      <trkpt lat="43.412524" lon="1.107503">
        <ele>276.9</ele>
        <time>2013-10-01T13:16:28Z</time>
      </trkpt>
      <trkpt lat="43.412496" lon="1.107383">
        <ele>276.9</ele>
        <time>2013-10-01T13:16:35Z</time>
      </trkpt>
      <trkpt lat="43.412454" lon="1.107251">
        <ele>277.0</ele>
        <time>2013-10-01T13:16:42Z</time>
      </trkpt>
      <trkpt lat="43.412419" lon="1.107121">
        <ele>277.0</ele>
        <time>2013-10-01T13:16:49Z</time>
      </trkpt>
      <trkpt lat="43.412390" lon="1.106978">
        <ele>277.3</ele>
        <time>2013-10-01T13:16:57Z</time>
      </trkpt>
      <trkpt lat="43.412355" lon="1.106843">
        <ele>277.5</ele>
        <time>2013-10-01T13:17:05Z</time>
      </trkpt>
      <trkpt lat="43.412323" lon="1.106709">
        <ele>277.7</ele>
        <time>2013-10-01T13:17:12Z</time>
      </trkpt>
      <trkpt lat="43.412283" lon="1.106576">
        <ele>278.0</ele>
        <time>2013-10-01T13:17:19Z</time>
      </trkpt>
      <trkpt lat="43.412245" lon="1.106449">
        <ele>278.2</ele>
        <time>2013-10-01T13:17:25Z</time>
      </trkpt>
      <trkpt lat="43.412210" lon="1.106324">
        <ele>278.3</ele>
        <time>2013-10-01T13:17:31Z</time>
      </trkpt>
      <trkpt lat="43.412173" lon="1.106191">
        <ele>278.4</ele>
        <time>2013-10-01T13:17:38Z</time>
      </trkpt>
      <trkpt lat="43.412140" lon="1.106075">
        <ele>278.4</ele>
        <time>2013-10-01T13:17:44Z</time>
      </trkpt>
      <trkpt lat="43.412098" lon="1.105950">
        <ele>278.3</ele>
        <time>2013-10-01T13:17:50Z</time>
      </trkpt>
      <trkpt lat="43.412050" lon="1.105828">
        <ele>278.2</ele>
        <time>2013-10-01T13:17:57Z</time>
      </trkpt>
      <trkpt lat="43.412018" lon="1.105698">
        <ele>278.2</ele>
        <time>2013-10-01T13:18:04Z</time>
      </trkpt>
      <trkpt lat="43.411983" lon="1.105568">
        <ele>278.4</ele>
        <time>2013-10-01T13:18:11Z</time>
      </trkpt>
      <trkpt lat="43.411934" lon="1.105432">
        <ele>278.5</ele>
        <time>2013-10-01T13:18:18Z</time>
      </trkpt>
      <trkpt lat="43.411892" lon="1.105294">
        <ele>278.5</ele>
        <time>2013-10-01T13:18:25Z</time>
      </trkpt>
      <trkpt lat="43.411841" lon="1.105168">
        <ele>278.5</ele>
        <time>2013-10-01T13:18:31Z</time>
      </trkpt>
      <trkpt lat="43.411777" lon="1.105045">
        <ele>278.5</ele>
        <time>2013-10-01T13:18:38Z</time>
      </trkpt>
      <trkpt lat="43.411713" lon="1.104950">
        <ele>278.7</ele>
        <time>2013-10-01T13:18:44Z</time>
      </trkpt>
      <trkpt lat="43.411651" lon="1.104856">
        <ele>278.8</ele>
        <time>2013-10-01T13:18:50Z</time>
      </trkpt>
      <trkpt lat="43.411563" lon="1.104771">
        <ele>278.8</ele>
        <time>2013-10-01T13:18:57Z</time>
      </trkpt>
      <trkpt lat="43.411474" lon="1.104679">
        <ele>278.2</ele>
        <time>2013-10-01T13:19:06Z</time>
      </trkpt>
      <trkpt lat="43.411392" lon="1.104623">
        <ele>277.3</ele>
        <time>2013-10-01T13:19:25Z</time>
      </trkpt>
      <trkpt lat="43.411306" lon="1.104558">
        <ele>276.9</ele>
        <time>2013-10-01T13:19:35Z</time>
      </trkpt>
      <trkpt lat="43.411193" lon="1.104509">
        <ele>276.6</ele>
        <time>2013-10-01T13:19:46Z</time>
      </trkpt>
      <trkpt lat="43.411096" lon="1.104449">
        <ele>276.4</ele>
        <time>2013-10-01T13:19:54Z</time>
      </trkpt>
      <trkpt lat="43.411012" lon="1.104350">
        <ele>275.9</ele>
        <time>2013-10-01T13:20:03Z</time>
      </trkpt>
      <trkpt lat="43.410934" lon="1.104257">
        <ele>275.6</ele>
        <time>2013-10-01T13:20:11Z</time>
      </trkpt>
      <trkpt lat="43.410855" lon="1.104189">
        <ele>275.2</ele>
        <time>2013-10-01T13:20:18Z</time>
      </trkpt>
      <trkpt lat="43.410772" lon="1.104146">
        <ele>275.1</ele>
        <time>2013-10-01T13:20:26Z</time>
      </trkpt>
      <trkpt lat="43.410693" lon="1.104066">
        <ele>275.8</ele>
        <time>2013-10-01T13:20:35Z</time>
      </trkpt>
      <trkpt lat="43.410663" lon="1.103940">
        <ele>276.9</ele>
        <time>2013-10-01T13:20:53Z</time>
      </trkpt>
      <trkpt lat="43.410608" lon="1.103826">
        <ele>277.3</ele>
        <time>2013-10-01T13:21:02Z</time>
      </trkpt>
      <trkpt lat="43.410565" lon="1.103692">
        <ele>277.6</ele>
        <time>2013-10-01T13:21:11Z</time>
      </trkpt>
      <trkpt lat="43.410513" lon="1.103559">
        <ele>278.0</ele>
        <time>2013-10-01T13:21:20Z</time>
      </trkpt>
      <trkpt lat="43.410442" lon="1.103433">
        <ele>278.3</ele>
        <time>2013-10-01T13:21:38Z</time>
      </trkpt>
      <trkpt lat="43.410406" lon="1.103316">
        <ele>278.4</ele>
        <time>2013-10-01T13:21:47Z</time>
      </trkpt>
      <trkpt lat="43.410361" lon="1.103177">
        <ele>278.7</ele>
        <time>2013-10-01T13:21:57Z</time>
      </trkpt>
      <trkpt lat="43.410310" lon="1.103035">
        <ele>279.1</ele>
        <time>2013-10-01T13:22:07Z</time>
      </trkpt>
      <trkpt lat="43.410241" lon="1.102920">
        <ele>279.8</ele>
        <time>2013-10-01T13:22:15Z</time>
      </trkpt>
      <trkpt lat="43.410162" lon="1.102809">
        <ele>280.1</ele>
        <time>2013-10-01T13:22:23Z</time>
      </trkpt>
      <trkpt lat="43.410089" lon="1.102694">
        <ele>280.3</ele>
        <time>2013-10-01T13:22:31Z</time>
      </trkpt>
      <trkpt lat="43.410018" lon="1.102588">
        <ele>280.4</ele>
        <time>2013-10-01T13:22:39Z</time>
      </trkpt>
      <trkpt lat="43.409954" lon="1.102456">
        <ele>280.5</ele>
        <time>2013-10-01T13:22:47Z</time>
      </trkpt>
      <trkpt lat="43.409887" lon="1.102357">
        <ele>280.7</ele>
        <time>2013-10-01T13:22:54Z</time>
      </trkpt>
      <trkpt lat="43.409815" lon="1.102236">
        <ele>280.8</ele>
        <time>2013-10-01T13:23:03Z</time>
      </trkpt>
      <trkpt lat="43.409733" lon="1.102136">
        <ele>280.9</ele>
        <time>2013-10-01T13:23:13Z</time>
      </trkpt>
      <trkpt lat="43.409659" lon="1.102008">
        <ele>280.9</ele>
        <time>2013-10-01T13:23:22Z</time>
      </trkpt>
      <trkpt lat="43.409564" lon="1.101896">
        <ele>281.1</ele>
        <time>2013-10-01T13:23:32Z</time>
      </trkpt>
      <trkpt lat="43.409483" lon="1.101782">
        <ele>281.3</ele>
        <time>2013-10-01T13:23:40Z</time>
      </trkpt>
      <trkpt lat="43.409398" lon="1.101645">
        <ele>281.6</ele>
        <time>2013-10-01T13:23:48Z</time>
      </trkpt>
      <trkpt lat="43.409305" lon="1.101531">
        <ele>281.8</ele>
        <time>2013-10-01T13:23:55Z</time>
      </trkpt>
      <trkpt lat="43.409222" lon="1.101431">
        <ele>281.9</ele>
        <time>2013-10-01T13:24:02Z</time>
      </trkpt>
      <trkpt lat="43.409135" lon="1.101339">
        <ele>282.0</ele>
        <time>2013-10-01T13:24:09Z</time>
      </trkpt>
      <trkpt lat="43.409047" lon="1.101248">
        <ele>281.9</ele>
        <time>2013-10-01T13:24:18Z</time>
      </trkpt>
      <trkpt lat="43.408953" lon="1.101178">
        <ele>281.8</ele>
        <time>2013-10-01T13:24:26Z</time>
      </trkpt>
      <trkpt lat="43.408854" lon="1.101120">
        <ele>281.7</ele>
        <time>2013-10-01T13:24:33Z</time>
      </trkpt>
      <trkpt lat="43.408772" lon="1.101067">
        <ele>281.6</ele>
        <time>2013-10-01T13:24:40Z</time>
      </trkpt>
      <trkpt lat="43.408680" lon="1.100978">
        <ele>281.1</ele>
        <time>2013-10-01T13:24:58Z</time>
      </trkpt>
      <trkpt lat="43.408584" lon="1.100913">
        <ele>280.9</ele>
        <time>2013-10-01T13:25:05Z</time>
      </trkpt>
      <trkpt lat="43.408509" lon="1.100825">
        <ele>280.6</ele>
        <time>2013-10-01T13:25:14Z</time>
      </trkpt>
      <trkpt lat="43.408491" lon="1.100805">
        <ele>280.4</ele>
        <time>2013-10-01T13:25:32Z</time>
        <name>Bifurcation</name>
      </trkpt>
      <trkpt lat="43.408516" lon="1.100692">
        <ele>280.4</ele>
        <time>2013-10-01T13:26:11Z</time>
      </trkpt>
      <trkpt lat="43.408545" lon="1.100559">
        <ele>280.1</ele>
        <time>2013-10-01T13:26:21Z</time>
      </trkpt>
      <trkpt lat="43.408573" lon="1.100413">
        <ele>279.5</ele>
        <time>2013-10-01T13:26:30Z</time>
      </trkpt>
      <trkpt lat="43.408612" lon="1.100286">
        <ele>279.3</ele>
        <time>2013-10-01T13:26:39Z</time>
      </trkpt>
      <trkpt lat="43.408640" lon="1.100160">
        <ele>278.9</ele>
        <time>2013-10-01T13:26:49Z</time>
      </trkpt>
      <trkpt lat="43.408672" lon="1.100035">
        <ele>278.6</ele>
        <time>2013-10-01T13:27:16Z</time>
      </trkpt>
      <trkpt lat="43.408697" lon="1.099877">
        <ele>278.5</ele>
        <time>2013-10-01T13:27:24Z</time>
      </trkpt>
      <trkpt lat="43.408727" lon="1.099742">
        <ele>278.3</ele>
        <time>2013-10-01T13:27:34Z</time>
      </trkpt>
      <trkpt lat="43.408770" lon="1.099613">
        <ele>278.0</ele>
        <time>2013-10-01T13:27:43Z</time>
      </trkpt>
      <trkpt lat="43.408795" lon="1.099495">
        <ele>277.4</ele>
        <time>2013-10-01T13:27:52Z</time>
      </trkpt>
      <trkpt lat="43.408843" lon="1.099347">
        <ele>276.4</ele>
        <time>2013-10-01T13:28:01Z</time>
      </trkpt>
      <trkpt lat="43.408892" lon="1.099213">
        <ele>275.1</ele>
        <time>2013-10-01T13:28:09Z</time>
      </trkpt>
      <trkpt lat="43.408916" lon="1.099081">
        <ele>274.1</ele>
        <time>2013-10-01T13:28:16Z</time>
      </trkpt>
      <trkpt lat="43.408931" lon="1.098942">
        <ele>272.6</ele>
        <time>2013-10-01T13:28:25Z</time>
      </trkpt>
      <trkpt lat="43.408980" lon="1.098806">
        <ele>271.2</ele>
        <time>2013-10-01T13:28:34Z</time>
      </trkpt>
      <trkpt lat="43.409034" lon="1.098655">
        <ele>270.1</ele>
        <time>2013-10-01T13:28:43Z</time>
      </trkpt>
      <trkpt lat="43.409084" lon="1.098494">
        <ele>268.5</ele>
        <time>2013-10-01T13:28:51Z</time>
      </trkpt>
      <trkpt lat="43.409105" lon="1.098353">
        <ele>267.5</ele>
        <time>2013-10-01T13:29:03Z</time>
      </trkpt>
      <trkpt lat="43.409053" lon="1.098230">
        <ele>267.7</ele>
        <time>2013-10-01T13:29:13Z</time>
      </trkpt>
      <trkpt lat="43.408972" lon="1.098137">
        <ele>268.1</ele>
        <time>2013-10-01T13:29:36Z</time>
      </trkpt>
      <trkpt lat="43.408885" lon="1.098030">
        <ele>268.2</ele>
        <time>2013-10-01T13:29:49Z</time>
      </trkpt>
      <trkpt lat="43.408801" lon="1.097913">
        <ele>268.5</ele>
        <time>2013-10-01T13:29:58Z</time>
      </trkpt>
      <trkpt lat="43.408706" lon="1.097815">
        <ele>269.1</ele>
        <time>2013-10-01T13:30:08Z</time>
      </trkpt>
      <trkpt lat="43.408684" lon="1.097690">
        <ele>269.8</ele>
        <time>2013-10-01T13:30:19Z</time>
      </trkpt>
      <trkpt lat="43.408606" lon="1.097585">
        <ele>268.8</ele>
        <time>2013-10-01T13:30:27Z</time>
      </trkpt>
      <trkpt lat="43.408555" lon="1.097467">
        <ele>268.0</ele>
        <time>2013-10-01T13:30:35Z</time>
      </trkpt>
      <trkpt lat="43.408560" lon="1.097351">
        <ele>267.7</ele>
        <time>2013-10-01T13:30:44Z</time>
      </trkpt>
      <trkpt lat="43.408534" lon="1.097225">
        <ele>268.3</ele>
        <time>2013-10-01T13:30:57Z</time>
      </trkpt>
      <trkpt lat="43.408505" lon="1.097078">
        <ele>268.9</ele>
        <time>2013-10-01T13:31:12Z</time>
      </trkpt>
      <trkpt lat="43.408464" lon="1.096922">
        <ele>269.5</ele>
        <time>2013-10-01T13:31:25Z</time>
      </trkpt>
      <trkpt lat="43.408430" lon="1.096764">
        <ele>269.9</ele>
        <time>2013-10-01T13:31:37Z</time>
      </trkpt>
      <trkpt lat="43.408483" lon="1.096610">
        <ele>269.2</ele>
        <time>2013-10-01T13:31:51Z</time>
      </trkpt>
      <trkpt lat="43.408566" lon="1.096455">
        <ele>269.0</ele>
        <time>2013-10-01T13:32:01Z</time>
      </trkpt>
      <trkpt lat="43.408588" lon="1.096279">
        <ele>269.2</ele>
        <time>2013-10-01T13:32:11Z</time>
      </trkpt>
      <trkpt lat="43.408544" lon="1.096065">
        <ele>269.4</ele>
        <time>2013-10-01T13:32:20Z</time>
      </trkpt>
      <trkpt lat="43.408467" lon="1.095911">
        <ele>269.8</ele>
        <time>2013-10-01T13:32:29Z</time>
      </trkpt>
      <trkpt lat="43.408391" lon="1.095799">
        <ele>270.0</ele>
        <time>2013-10-01T13:32:37Z</time>
      </trkpt>
      <trkpt lat="43.408271" lon="1.095724">
        <ele>270.2</ele>
        <time>2013-10-01T13:32:46Z</time>
      </trkpt>
      <trkpt lat="43.408214" lon="1.095591">
        <ele>271.0</ele>
        <time>2013-10-01T13:32:56Z</time>
      </trkpt>
      <trkpt lat="43.408158" lon="1.095464">
        <ele>271.6</ele>
        <time>2013-10-01T13:33:16Z</time>
      </trkpt>
      <trkpt lat="43.408101" lon="1.095322">
        <ele>270.9</ele>
        <time>2013-10-01T13:33:25Z</time>
      </trkpt>
      <trkpt lat="43.408039" lon="1.095154">
        <ele>270.9</ele>
        <time>2013-10-01T13:33:36Z</time>
      </trkpt>
      <trkpt lat="43.407986" lon="1.094987">
        <ele>270.9</ele>
        <time>2013-10-01T13:33:47Z</time>
      </trkpt>
      <trkpt lat="43.407913" lon="1.094878">
        <ele>271.1</ele>
        <time>2013-10-01T13:34:04Z</time>
      </trkpt>
      <trkpt lat="43.407789" lon="1.094733">
        <ele>271.4</ele>
        <time>2013-10-01T13:34:16Z</time>
      </trkpt>
      <trkpt lat="43.407674" lon="1.094645">
        <ele>271.3</ele>
        <time>2013-10-01T13:34:26Z</time>
      </trkpt>
      <trkpt lat="43.407583" lon="1.094552">
        <ele>271.2</ele>
        <time>2013-10-01T13:34:40Z</time>
      </trkpt>
      <trkpt lat="43.407490" lon="1.094438">
        <ele>271.2</ele>
        <time>2013-10-01T13:34:48Z</time>
      </trkpt>
      <trkpt lat="43.407416" lon="1.094347">
        <ele>271.4</ele>
        <time>2013-10-01T13:34:56Z</time>
      </trkpt>
      <trkpt lat="43.407311" lon="1.094227">
        <ele>271.6</ele>
        <time>2013-10-01T13:35:07Z</time>
      </trkpt>
      <trkpt lat="43.407246" lon="1.094142">
        <ele>271.8</ele>
        <time>2013-10-01T13:35:18Z</time>
      </trkpt>
      <trkpt lat="43.407168" lon="1.094047">
        <ele>272.0</ele>
        <time>2013-10-01T13:35:31Z</time>
      </trkpt>
      <trkpt lat="43.407104" lon="1.093974">
        <ele>272.3</ele>
        <time>2013-10-01T13:35:40Z</time>
      </trkpt>
      <trkpt lat="43.407069" lon="1.093857">
        <ele>273.2</ele>
        <time>2013-10-01T13:35:51Z</time>
      </trkpt>
      <trkpt lat="43.407047" lon="1.093787">
        <ele>273.2</ele>
        <time>2013-10-01T13:36:09Z</time>
      </trkpt>
      <trkpt lat="43.407028" lon="1.093857">
        <ele>274.1</ele>
        <time>2013-10-01T13:36:26Z</time>
      </trkpt>
      <trkpt lat="43.407026" lon="1.093826">
        <ele>274.0</ele>
        <time>2013-10-01T13:36:42Z</time>
      </trkpt>
      <trkpt lat="43.407008" lon="1.093702">
        <ele>273.4</ele>
        <time>2013-10-01T13:36:53Z</time>
      </trkpt>
      <trkpt lat="43.406957" lon="1.093559">
        <ele>273.1</ele>
        <time>2013-10-01T13:37:03Z</time>
      </trkpt>
      <trkpt lat="43.406937" lon="1.093395">
        <ele>273.2</ele>
        <time>2013-10-01T13:37:13Z</time>
      </trkpt>
      <trkpt lat="43.406943" lon="1.093210">
        <ele>273.1</ele>
        <time>2013-10-01T13:37:28Z</time>
      </trkpt>
      <trkpt lat="43.406917" lon="1.093066">
        <ele>273.2</ele>
        <time>2013-10-01T13:37:41Z</time>
      </trkpt>
      <trkpt lat="43.406872" lon="1.092918">
        <ele>273.3</ele>
        <time>2013-10-01T13:37:51Z</time>
      </trkpt>
      <trkpt lat="43.406845" lon="1.092748">
        <ele>273.1</ele>
        <time>2013-10-01T13:38:02Z</time>
      </trkpt>
      <trkpt lat="43.406840" lon="1.092540">
        <ele>273.2</ele>
        <time>2013-10-01T13:38:14Z</time>
      </trkpt>
      <trkpt lat="43.406866" lon="1.092330">
        <ele>273.5</ele>
        <time>2013-10-01T13:38:26Z</time>
      </trkpt>
      <trkpt lat="43.406846" lon="1.092163">
        <ele>273.3</ele>
        <time>2013-10-01T13:38:38Z</time>
      </trkpt>
      <trkpt lat="43.406835" lon="1.091993">
        <ele>273.3</ele>
        <time>2013-10-01T13:38:50Z</time>
      </trkpt>
      <trkpt lat="43.406816" lon="1.091841">
        <ele>273.3</ele>
        <time>2013-10-01T13:39:00Z</time>
      </trkpt>
      <trkpt lat="43.406818" lon="1.091681">
        <ele>273.4</ele>
        <time>2013-10-01T13:39:11Z</time>
      </trkpt>
      <trkpt lat="43.406861" lon="1.091463">
        <ele>273.3</ele>
        <time>2013-10-01T13:39:21Z</time>
      </trkpt>
      <trkpt lat="43.406852" lon="1.091316">
        <ele>273.5</ele>
        <time>2013-10-01T13:39:30Z</time>
      </trkpt>
      <trkpt lat="43.406841" lon="1.091174">
        <ele>273.6</ele>
        <time>2013-10-01T13:39:44Z</time>
      </trkpt>
      <trkpt lat="43.406815" lon="1.090992">
        <ele>273.8</ele>
        <time>2013-10-01T13:39:52Z</time>
      </trkpt>
      <trkpt lat="43.406791" lon="1.090829">
        <ele>274.0</ele>
        <time>2013-10-01T13:40:01Z</time>
      </trkpt>
      <trkpt lat="43.406761" lon="1.090677">
        <ele>274.2</ele>
        <time>2013-10-01T13:40:09Z</time>
      </trkpt>
      <trkpt lat="43.406707" lon="1.090521">
        <ele>274.3</ele>
        <time>2013-10-01T13:40:17Z</time>
      </trkpt>
      <trkpt lat="43.406624" lon="1.090341">
        <ele>274.3</ele>
        <time>2013-10-01T13:40:25Z</time>
      </trkpt>
      <trkpt lat="43.406622" lon="1.090189">
        <ele>274.6</ele>
        <time>2013-10-01T13:40:34Z</time>
      </trkpt>
      <trkpt lat="43.406597" lon="1.090026">
        <ele>274.9</ele>
        <time>2013-10-01T13:40:43Z</time>
      </trkpt>
      <trkpt lat="43.406562" lon="1.089850">
        <ele>274.5</ele>
        <time>2013-10-01T13:40:51Z</time>
      </trkpt>
      <trkpt lat="43.406513" lon="1.089715">
        <ele>274.6</ele>
        <time>2013-10-01T13:40:59Z</time>
      </trkpt>
      <trkpt lat="43.406477" lon="1.089570">
        <ele>274.8</ele>
        <time>2013-10-01T13:41:07Z</time>
      </trkpt>
      <trkpt lat="43.406437" lon="1.089430">
        <ele>275.3</ele>
        <time>2013-10-01T13:41:18Z</time>
      </trkpt>
      <trkpt lat="43.406383" lon="1.089306">
        <ele>275.1</ele>
        <time>2013-10-01T13:41:39Z</time>
      </trkpt>
      <trkpt lat="43.406386" lon="1.089182">
        <ele>274.8</ele>
        <time>2013-10-01T13:41:47Z</time>
      </trkpt>
      <trkpt lat="43.406329" lon="1.089043">
        <ele>274.6</ele>
        <time>2013-10-01T13:41:57Z</time>
      </trkpt>
      <trkpt lat="43.406292" lon="1.088902">
        <ele>274.6</ele>
        <time>2013-10-01T13:42:04Z</time>
      </trkpt>
      <trkpt lat="43.406267" lon="1.088762">
        <ele>274.8</ele>
        <time>2013-10-01T13:42:11Z</time>
      </trkpt>
      <trkpt lat="43.406217" lon="1.088609">
        <ele>274.9</ele>
        <time>2013-10-01T13:42:19Z</time>
      </trkpt>
      <trkpt lat="43.406205" lon="1.088447">
        <ele>274.8</ele>
        <time>2013-10-01T13:42:30Z</time>
      </trkpt>
      <trkpt lat="43.406199" lon="1.088266">
        <ele>275.2</ele>
        <time>2013-10-01T13:42:39Z</time>
      </trkpt>
      <trkpt lat="43.406158" lon="1.088079">
        <ele>275.5</ele>
        <time>2013-10-01T13:42:46Z</time>
      </trkpt>
      <trkpt lat="43.406149" lon="1.087918">
        <ele>275.6</ele>
        <time>2013-10-01T13:42:55Z</time>
      </trkpt>
      <trkpt lat="43.406129" lon="1.087757">
        <ele>275.5</ele>
        <time>2013-10-01T13:43:07Z</time>
      </trkpt>
      <trkpt lat="43.406057" lon="1.087579">
        <ele>275.6</ele>
        <time>2013-10-01T13:43:15Z</time>
      </trkpt>
      <trkpt lat="43.406027" lon="1.087440">
        <ele>275.6</ele>
        <time>2013-10-01T13:43:20Z</time>
      </trkpt>
      <trkpt lat="43.405986" lon="1.087310">
        <ele>275.7</ele>
        <time>2013-10-01T13:43:25Z</time>
      </trkpt>
      <trkpt lat="43.405938" lon="1.087163">
        <ele>275.9</ele>
        <time>2013-10-01T13:43:32Z</time>
      </trkpt>
      <trkpt lat="43.405889" lon="1.087015">
        <ele>277.1</ele>
        <time>2013-10-01T13:43:38Z</time>
      </trkpt>
      <trkpt lat="43.405878" lon="1.086820">
        <ele>277.6</ele>
        <time>2013-10-01T13:43:48Z</time>
      </trkpt>
      <trkpt lat="43.405915" lon="1.086658">
        <ele>277.4</ele>
        <time>2013-10-01T13:43:55Z</time>
      </trkpt>
      <trkpt lat="43.405967" lon="1.086498">
        <ele>276.8</ele>
        <time>2013-10-01T13:44:01Z</time>
      </trkpt>
      <trkpt lat="43.406008" lon="1.086345">
        <ele>276.3</ele>
        <time>2013-10-01T13:44:08Z</time>
      </trkpt>
      <trkpt lat="43.406060" lon="1.086123">
        <ele>276.2</ele>
        <time>2013-10-01T13:44:16Z</time>
      </trkpt>
      <trkpt lat="43.406118" lon="1.085935">
        <ele>276.6</ele>
        <time>2013-10-01T13:44:22Z</time>
      </trkpt>
      <trkpt lat="43.406165" lon="1.085788">
        <ele>276.8</ele>
        <time>2013-10-01T13:44:27Z</time>
      </trkpt>
      <trkpt lat="43.406223" lon="1.085663">
        <ele>277.0</ele>
        <time>2013-10-01T13:44:32Z</time>
      </trkpt>
      <trkpt lat="43.406257" lon="1.085496">
        <ele>277.3</ele>
        <time>2013-10-01T13:44:38Z</time>
      </trkpt>
      <trkpt lat="43.406309" lon="1.085337">
        <ele>277.6</ele>
        <time>2013-10-01T13:44:44Z</time>
      </trkpt>
      <trkpt lat="43.406389" lon="1.085198">
        <ele>277.7</ele>
        <time>2013-10-01T13:44:50Z</time>
      </trkpt>
      <trkpt lat="43.406401" lon="1.085009">
        <ele>278.2</ele>
        <time>2013-10-01T13:44:57Z</time>
      </trkpt>
      <trkpt lat="43.406411" lon="1.084730">
        <ele>278.4</ele>
        <time>2013-10-01T13:45:05Z</time>
      </trkpt>
      <trkpt lat="43.406436" lon="1.084500">
        <ele>278.9</ele>
        <time>2013-10-01T13:45:12Z</time>
      </trkpt>
      <trkpt lat="43.406433" lon="1.084293">
        <ele>279.3</ele>
        <time>2013-10-01T13:45:18Z</time>
      </trkpt>
      <trkpt lat="43.406401" lon="1.084042">
        <ele>279.5</ele>
        <time>2013-10-01T13:45:30Z</time>
      </trkpt>
      <trkpt lat="43.406366" lon="1.083884">
        <ele>279.8</ele>
        <time>2013-10-01T13:45:39Z</time>
      </trkpt>
      <trkpt lat="43.406342" lon="1.083731">
        <ele>280.1</ele>
        <time>2013-10-01T13:45:51Z</time>
      </trkpt>
      <trkpt lat="43.406299" lon="1.083524">
        <ele>280.1</ele>
        <time>2013-10-01T13:46:02Z</time>
      </trkpt>
      <trkpt lat="43.406306" lon="1.083317">
        <ele>280.3</ele>
        <time>2013-10-01T13:46:14Z</time>
      </trkpt>
      <trkpt lat="43.406293" lon="1.083125">
        <ele>280.4</ele>
        <time>2013-10-01T13:46:26Z</time>
      </trkpt>
      <trkpt lat="43.406222" lon="1.082938">
        <ele>280.8</ele>
        <time>2013-10-01T13:46:37Z</time>
      </trkpt>
      <trkpt lat="43.406146" lon="1.082819">
        <ele>281.3</ele>
        <time>2013-10-01T13:46:47Z</time>
      </trkpt>
      <trkpt lat="43.406150" lon="1.082616">
        <ele>281.7</ele>
        <time>2013-10-01T13:46:58Z</time>
      </trkpt>
      <trkpt lat="43.406137" lon="1.082448">
        <ele>281.9</ele>
        <time>2013-10-01T13:47:07Z</time>
      </trkpt>
      <trkpt lat="43.406124" lon="1.082326">
        <ele>282.0</ele>
        <time>2013-10-01T13:47:21Z</time>
      </trkpt>
      <trkpt lat="43.406073" lon="1.082199">
        <ele>282.1</ele>
        <time>2013-10-01T13:47:30Z</time>
      </trkpt>
      <trkpt lat="43.405999" lon="1.082127">
        <ele>282.1</ele>
        <time>2013-10-01T13:47:40Z</time>
      </trkpt>
      <trkpt lat="43.405970" lon="1.081983">
        <ele>282.2</ele>
        <time>2013-10-01T13:47:49Z</time>
      </trkpt>
      <trkpt lat="43.405960" lon="1.081831">
        <ele>282.3</ele>
        <time>2013-10-01T13:47:59Z</time>
      </trkpt>
      <trkpt lat="43.405914" lon="1.081637">
        <ele>282.5</ele>
        <time>2013-10-01T13:48:09Z</time>
      </trkpt>
      <trkpt lat="43.405867" lon="1.081501">
        <ele>282.6</ele>
        <time>2013-10-01T13:48:16Z</time>
      </trkpt>
      <trkpt lat="43.405825" lon="1.081356">
        <ele>282.7</ele>
        <time>2013-10-01T13:48:24Z</time>
      </trkpt>
      <trkpt lat="43.405786" lon="1.081235">
        <ele>283.0</ele>
        <time>2013-10-01T13:48:32Z</time>
      </trkpt>
      <trkpt lat="43.405767" lon="1.081084">
        <ele>283.1</ele>
        <time>2013-10-01T13:48:39Z</time>
      </trkpt>
      <trkpt lat="43.405746" lon="1.080903">
        <ele>283.3</ele>
        <time>2013-10-01T13:48:48Z</time>
      </trkpt>
      <trkpt lat="43.405732" lon="1.080752">
        <ele>283.5</ele>
        <time>2013-10-01T13:48:56Z</time>
      </trkpt>
      <trkpt lat="43.405700" lon="1.080572">
        <ele>283.6</ele>
        <time>2013-10-01T13:49:04Z</time>
      </trkpt>
      <trkpt lat="43.405648" lon="1.080423">
        <ele>283.9</ele>
        <time>2013-10-01T13:49:12Z</time>
      </trkpt>
      <trkpt lat="43.405621" lon="1.080260">
        <ele>284.1</ele>
        <time>2013-10-01T13:49:20Z</time>
      </trkpt>
      <trkpt lat="43.405541" lon="1.080143">
        <ele>284.2</ele>
        <time>2013-10-01T13:49:27Z</time>
      </trkpt>
      <trkpt lat="43.405464" lon="1.080035">
        <ele>284.3</ele>
        <time>2013-10-01T13:49:35Z</time>
      </trkpt>
      <trkpt lat="43.405441" lon="1.079886">
        <ele>284.3</ele>
        <time>2013-10-01T13:49:42Z</time>
      </trkpt>
      <trkpt lat="43.405386" lon="1.079718">
        <ele>284.4</ele>
        <time>2013-10-01T13:49:53Z</time>
      </trkpt>
      <trkpt lat="43.405363" lon="1.079555">
        <ele>284.4</ele>
        <time>2013-10-01T13:50:02Z</time>
      </trkpt>
      <trkpt lat="43.405327" lon="1.079382">
        <ele>284.9</ele>
        <time>2013-10-01T13:50:12Z</time>
      </trkpt>
      <trkpt lat="43.405272" lon="1.079198">
        <ele>285.0</ele>
        <time>2013-10-01T13:50:23Z</time>
      </trkpt>
      <trkpt lat="43.405180" lon="1.079055">
        <ele>285.1</ele>
        <time>2013-10-01T13:50:32Z</time>
      </trkpt>
      <trkpt lat="43.405136" lon="1.078869">
        <ele>285.3</ele>
        <time>2013-10-01T13:50:42Z</time>
      </trkpt>
      <trkpt lat="43.405059" lon="1.078690">
        <ele>286.0</ele>
        <time>2013-10-01T13:50:54Z</time>
      </trkpt>
      <trkpt lat="43.404967" lon="1.078566">
        <ele>286.3</ele>
        <time>2013-10-01T13:51:03Z</time>
      </trkpt>
      <trkpt lat="43.404848" lon="1.078505">
        <ele>287.2</ele>
        <time>2013-10-01T13:51:13Z</time>
      </trkpt>
      <trkpt lat="43.404722" lon="1.078399">
        <ele>287.9</ele>
        <time>2013-10-01T13:51:21Z</time>
      </trkpt>
      <trkpt lat="43.404625" lon="1.078259">
        <ele>288.5</ele>
        <time>2013-10-01T13:51:31Z</time>
      </trkpt>
      <trkpt lat="43.404527" lon="1.078147">
        <ele>288.8</ele>
        <time>2013-10-01T13:51:42Z</time>
      </trkpt>
      <trkpt lat="43.404397" lon="1.078064">
        <ele>288.8</ele>
        <time>2013-10-01T13:51:52Z</time>
      </trkpt>
      <trkpt lat="43.404302" lon="1.078047">
        <ele>289.3</ele>
        <time>2013-10-01T13:52:27Z</time>
      </trkpt>
      <trkpt lat="43.404237" lon="1.078029">
        <ele>289.5</ele>
        <time>2013-10-01T13:52:49Z</time>
      </trkpt>
      <trkpt lat="43.404169" lon="1.077900">
        <ele>289.0</ele>
        <time>2013-10-01T13:53:00Z</time>
      </trkpt>
      <trkpt lat="43.404075" lon="1.077803">
        <ele>289.1</ele>
        <time>2013-10-01T13:53:09Z</time>
      </trkpt>
      <trkpt lat="43.403920" lon="1.077707">
        <ele>289.3</ele>
        <time>2013-10-01T13:53:18Z</time>
      </trkpt>
      <trkpt lat="43.403789" lon="1.077700">
        <ele>291.2</ele>
        <time>2013-10-01T13:53:27Z</time>
      </trkpt>
      <trkpt lat="43.403730" lon="1.077656">
        <ele>293.6</ele>
        <time>2013-10-01T13:54:34Z</time>
        <name>Route D3</name>
      </trkpt>
      <trkpt lat="43.403658" lon="1.077555">
        <ele>293.3</ele>
        <time>2013-10-01T13:54:42Z</time>
      </trkpt>
      <trkpt lat="43.403557" lon="1.077575">
        <ele>293.0</ele>
        <time>2013-10-01T13:55:22Z</time>
      </trkpt>
      <trkpt lat="43.403437" lon="1.077584">
        <ele>294.7</ele>
        <time>2013-10-01T13:57:14Z</time>
      </trkpt>
      <trkpt lat="43.403329" lon="1.077601">
        <ele>296.3</ele>
        <time>2013-10-01T13:57:25Z</time>
      </trkpt>
      <trkpt lat="43.403200" lon="1.077618">
        <ele>297.9</ele>
        <time>2013-10-01T13:57:39Z</time>
      </trkpt>
      <trkpt lat="43.403132" lon="1.077665">
        <ele>298.3</ele>
        <time>2013-10-01T13:58:16Z</time>
      </trkpt>
      <trkpt lat="43.403139" lon="1.077725">
        <ele>298.5</ele>
        <time>2013-10-01T13:59:05Z</time>
      </trkpt>
      <trkpt lat="43.403101" lon="1.077707">
        <ele>298.5</ele>
        <time>2013-10-01T14:00:22Z</time>
      </trkpt>
      <trkpt lat="43.403181" lon="1.077794">
        <ele>299.0</ele>
        <time>2013-10-01T14:00:37Z</time>
      </trkpt>
      <trkpt lat="43.403279" lon="1.077924">
        <ele>299.4</ele>
        <time>2013-10-01T14:00:48Z</time>
      </trkpt>
      <trkpt lat="43.403343" lon="1.078034">
        <ele>299.8</ele>
        <time>2013-10-01T14:00:59Z</time>
      </trkpt>
      <trkpt lat="43.403383" lon="1.078173">
        <ele>301.1</ele>
        <time>2013-10-01T14:01:12Z</time>
      </trkpt>
      <trkpt lat="43.403373" lon="1.078349">
        <ele>302.8</ele>
        <time>2013-10-01T14:01:24Z</time>
      </trkpt>
      <trkpt lat="43.403318" lon="1.078484">
        <ele>304.9</ele>
        <time>2013-10-01T14:01:38Z</time>
      </trkpt>
      <trkpt lat="43.403274" lon="1.078650">
        <ele>306.1</ele>
        <time>2013-10-01T14:01:49Z</time>
      </trkpt>
      <trkpt lat="43.403216" lon="1.078809">
        <ele>306.7</ele>
        <time>2013-10-01T14:01:59Z</time>
      </trkpt>
      <trkpt lat="43.403167" lon="1.078941">
        <ele>308.3</ele>
        <time>2013-10-01T14:02:08Z</time>
      </trkpt>
      <trkpt lat="43.403095" lon="1.079109">
        <ele>310.9</ele>
        <time>2013-10-01T14:02:19Z</time>
      </trkpt>
      <trkpt lat="43.403043" lon="1.079269">
        <ele>312.6</ele>
        <time>2013-10-01T14:02:29Z</time>
      </trkpt>
      <trkpt lat="43.402979" lon="1.079420">
        <ele>314.2</ele>
        <time>2013-10-01T14:02:46Z</time>
      </trkpt>
      <trkpt lat="43.402931" lon="1.079588">
        <ele>315.4</ele>
        <time>2013-10-01T14:02:56Z</time>
      </trkpt>
      <trkpt lat="43.402884" lon="1.079735">
        <ele>316.4</ele>
        <time>2013-10-01T14:03:05Z</time>
      </trkpt>
      <trkpt lat="43.402852" lon="1.079910">
        <ele>316.9</ele>
        <time>2013-10-01T14:03:15Z</time>
      </trkpt>
      <trkpt lat="43.402787" lon="1.080087">
        <ele>317.7</ele>
        <time>2013-10-01T14:03:28Z</time>
      </trkpt>
      <trkpt lat="43.402732" lon="1.080250">
        <ele>318.4</ele>
        <time>2013-10-01T14:03:38Z</time>
      </trkpt>
      <trkpt lat="43.402696" lon="1.080399">
        <ele>319.0</ele>
        <time>2013-10-01T14:03:47Z</time>
      </trkpt>
      <trkpt lat="43.402644" lon="1.080570">
        <ele>319.9</ele>
        <time>2013-10-01T14:03:59Z</time>
      </trkpt>
      <trkpt lat="43.402564" lon="1.080711">
        <ele>320.3</ele>
        <time>2013-10-01T14:04:09Z</time>
      </trkpt>
      <trkpt lat="43.402501" lon="1.080863">
        <ele>320.7</ele>
        <time>2013-10-01T14:04:21Z</time>
      </trkpt>
      <trkpt lat="43.402451" lon="1.081006">
        <ele>321.0</ele>
        <time>2013-10-01T14:04:30Z</time>
      </trkpt>
      <trkpt lat="43.402395" lon="1.081162">
        <ele>321.1</ele>
        <time>2013-10-01T14:04:38Z</time>
      </trkpt>
      <trkpt lat="43.402345" lon="1.081313">
        <ele>321.2</ele>
        <time>2013-10-01T14:04:47Z</time>
      </trkpt>
      <trkpt lat="43.402272" lon="1.081464">
        <ele>321.5</ele>
        <time>2013-10-01T14:04:56Z</time>
      </trkpt>
      <trkpt lat="43.402224" lon="1.081620">
        <ele>321.4</ele>
        <time>2013-10-01T14:05:04Z</time>
      </trkpt>
      <trkpt lat="43.402174" lon="1.081771">
        <ele>321.6</ele>
        <time>2013-10-01T14:05:12Z</time>
      </trkpt>
      <trkpt lat="43.402110" lon="1.081935">
        <ele>321.8</ele>
        <time>2013-10-01T14:05:21Z</time>
      </trkpt>
      <trkpt lat="43.402051" lon="1.082090">
        <ele>321.6</ele>
        <time>2013-10-01T14:05:30Z</time>
      </trkpt>
      <trkpt lat="43.401998" lon="1.082295">
        <ele>321.5</ele>
        <time>2013-10-01T14:05:38Z</time>
      </trkpt>
      <trkpt lat="43.401927" lon="1.082439">
        <ele>321.5</ele>
        <time>2013-10-01T14:05:46Z</time>
      </trkpt>
      <trkpt lat="43.401880" lon="1.082582">
        <ele>321.3</ele>
        <time>2013-10-01T14:05:54Z</time>
      </trkpt>
      <trkpt lat="43.401823" lon="1.082711">
        <ele>321.2</ele>
        <time>2013-10-01T14:06:02Z</time>
      </trkpt>
      <trkpt lat="43.401772" lon="1.082910">
        <ele>320.8</ele>
        <time>2013-10-01T14:06:13Z</time>
      </trkpt>
      <trkpt lat="43.401723" lon="1.083088">
        <ele>320.6</ele>
        <time>2013-10-01T14:06:23Z</time>
      </trkpt>
      <trkpt lat="43.401672" lon="1.083215">
        <ele>320.5</ele>
        <time>2013-10-01T14:06:28Z</time>
      </trkpt>
      <trkpt lat="43.401612" lon="1.083330">
        <ele>320.4</ele>
        <time>2013-10-01T14:06:32Z</time>
      </trkpt>
      <trkpt lat="43.401554" lon="1.083449">
        <ele>320.3</ele>
        <time>2013-10-01T14:06:37Z</time>
      </trkpt>
      <trkpt lat="43.401529" lon="1.083612">
        <ele>319.9</ele>
        <time>2013-10-01T14:06:43Z</time>
      </trkpt>
      <trkpt lat="43.401471" lon="1.083759">
        <ele>319.3</ele>
        <time>2013-10-01T14:06:49Z</time>
      </trkpt>
      <trkpt lat="43.401406" lon="1.083886">
        <ele>319.0</ele>
        <time>2013-10-01T14:06:54Z</time>
      </trkpt>
      <trkpt lat="43.401351" lon="1.084019">
        <ele>319.0</ele>
        <time>2013-10-01T14:06:59Z</time>
      </trkpt>
      <trkpt lat="43.401317" lon="1.084227">
        <ele>318.8</ele>
        <time>2013-10-01T14:07:05Z</time>
      </trkpt>
      <trkpt lat="43.401221" lon="1.084398">
        <ele>318.5</ele>
        <time>2013-10-01T14:07:11Z</time>
      </trkpt>
      <trkpt lat="43.401150" lon="1.084536">
        <ele>318.3</ele>
        <time>2013-10-01T14:07:16Z</time>
      </trkpt>
      <trkpt lat="43.401087" lon="1.084693">
        <ele>318.0</ele>
        <time>2013-10-01T14:07:21Z</time>
      </trkpt>
      <trkpt lat="43.401010" lon="1.084873">
        <ele>317.8</ele>
        <time>2013-10-01T14:07:27Z</time>
      </trkpt>
      <trkpt lat="43.400904" lon="1.085027">
        <ele>317.7</ele>
        <time>2013-10-01T14:07:32Z</time>
      </trkpt>
      <trkpt lat="43.400780" lon="1.085225">
        <ele>317.6</ele>
        <time>2013-10-01T14:07:37Z</time>
      </trkpt>
      <trkpt lat="43.400708" lon="1.085360">
        <ele>317.5</ele>
        <time>2013-10-01T14:07:41Z</time>
      </trkpt>
      <trkpt lat="43.400645" lon="1.085475">
        <ele>317.3</ele>
        <time>2013-10-01T14:07:45Z</time>
      </trkpt>
      <trkpt lat="43.400571" lon="1.085611">
        <ele>317.2</ele>
        <time>2013-10-01T14:07:49Z</time>
      </trkpt>
      <trkpt lat="43.400504" lon="1.085726">
        <ele>317.1</ele>
        <time>2013-10-01T14:07:53Z</time>
      </trkpt>
      <trkpt lat="43.400443" lon="1.085862">
        <ele>317.0</ele>
        <time>2013-10-01T14:07:57Z</time>
      </trkpt>
      <trkpt lat="43.400392" lon="1.085980">
        <ele>316.8</ele>
        <time>2013-10-01T14:08:01Z</time>
      </trkpt>
      <trkpt lat="43.400375" lon="1.086122">
        <ele>316.6</ele>
        <time>2013-10-01T14:08:05Z</time>
      </trkpt>
      <trkpt lat="43.400340" lon="1.086333">
        <ele>316.2</ele>
        <time>2013-10-01T14:08:10Z</time>
      </trkpt>
      <trkpt lat="43.400289" lon="1.086491">
        <ele>315.9</ele>
        <time>2013-10-01T14:08:14Z</time>
      </trkpt>
      <trkpt lat="43.400256" lon="1.086663">
        <ele>315.5</ele>
        <time>2013-10-01T14:08:18Z</time>
      </trkpt>
      <trkpt lat="43.400228" lon="1.086820">
        <ele>315.0</ele>
        <time>2013-10-01T14:08:22Z</time>
      </trkpt>
      <trkpt lat="43.400200" lon="1.086990">
        <ele>314.2</ele>
        <time>2013-10-01T14:08:26Z</time>
      </trkpt>
      <trkpt lat="43.400162" lon="1.087152">
        <ele>313.5</ele>
        <time>2013-10-01T14:08:30Z</time>
      </trkpt>
      <trkpt lat="43.400125" lon="1.087326">
        <ele>312.9</ele>
        <time>2013-10-01T14:08:34Z</time>
      </trkpt>
      <trkpt lat="43.400085" lon="1.087557">
        <ele>312.1</ele>
        <time>2013-10-01T14:08:38Z</time>
      </trkpt>
      <trkpt lat="43.400026" lon="1.087747">
        <ele>311.4</ele>
        <time>2013-10-01T14:08:42Z</time>
      </trkpt>
      <trkpt lat="43.399961" lon="1.087900">
        <ele>310.6</ele>
        <time>2013-10-01T14:08:46Z</time>
      </trkpt>
      <trkpt lat="43.399899" lon="1.088037">
        <ele>310.0</ele>
        <time>2013-10-01T14:08:50Z</time>
      </trkpt>
      <trkpt lat="43.399848" lon="1.088192">
        <ele>309.1</ele>
        <time>2013-10-01T14:08:54Z</time>
      </trkpt>
      <trkpt lat="43.399801" lon="1.088341">
        <ele>308.5</ele>
        <time>2013-10-01T14:08:58Z</time>
      </trkpt>
      <trkpt lat="43.399763" lon="1.088460">
        <ele>308.1</ele>
        <time>2013-10-01T14:09:01Z</time>
      </trkpt>
      <trkpt lat="43.399710" lon="1.088622">
        <ele>307.5</ele>
        <time>2013-10-01T14:09:05Z</time>
      </trkpt>
      <trkpt lat="43.399661" lon="1.088806">
        <ele>307.0</ele>
        <time>2013-10-01T14:09:09Z</time>
      </trkpt>
      <trkpt lat="43.399612" lon="1.088966">
        <ele>306.5</ele>
        <time>2013-10-01T14:09:13Z</time>
      </trkpt>
      <trkpt lat="43.399572" lon="1.089096">
        <ele>305.6</ele>
        <time>2013-10-01T14:09:18Z</time>
      </trkpt>
      <trkpt lat="43.399489" lon="1.089142">
        <ele>304.8</ele>
        <time>2013-10-01T14:09:25Z</time>
      </trkpt>
      <trkpt lat="43.399507" lon="1.089250">
        <ele>303.9</ele>
        <time>2013-10-01T14:09:34Z</time>
      </trkpt>
      <trkpt lat="43.399545" lon="1.089390">
        <ele>303.5</ele>
        <time>2013-10-01T14:09:42Z</time>
      </trkpt>
      <trkpt lat="43.399609" lon="1.089487">
        <ele>303.0</ele>
        <time>2013-10-01T14:10:04Z</time>
      </trkpt>
      <trkpt lat="43.399645" lon="1.089607">
        <ele>302.8</ele>
        <time>2013-10-01T14:10:11Z</time>
      </trkpt>
      <trkpt lat="43.399683" lon="1.089725">
        <ele>302.6</ele>
        <time>2013-10-01T14:10:18Z</time>
      </trkpt>
      <trkpt lat="43.399739" lon="1.089847">
        <ele>302.4</ele>
        <time>2013-10-01T14:10:25Z</time>
      </trkpt>
      <trkpt lat="43.399791" lon="1.089957">
        <ele>302.2</ele>
        <time>2013-10-01T14:10:33Z</time>
      </trkpt>
      <trkpt lat="43.399843" lon="1.090084">
        <ele>302.0</ele>
        <time>2013-10-01T14:10:41Z</time>
      </trkpt>
      <trkpt lat="43.399909" lon="1.090189">
        <ele>301.9</ele>
        <time>2013-10-01T14:10:48Z</time>
      </trkpt>
      <trkpt lat="43.399932" lon="1.090321">
        <ele>301.6</ele>
        <time>2013-10-01T14:10:56Z</time>
      </trkpt>
      <trkpt lat="43.399894" lon="1.090441">
        <ele>300.1</ele>
        <time>2013-10-01T14:11:09Z</time>
      </trkpt>
      <trkpt lat="43.399861" lon="1.090579">
        <ele>299.2</ele>
        <time>2013-10-01T14:11:44Z</time>
      </trkpt>
      <trkpt lat="43.399816" lon="1.090680">
        <ele>298.3</ele>
        <time>2013-10-01T14:12:00Z</time>
      </trkpt>
      <trkpt lat="43.399763" lon="1.090806">
        <ele>298.0</ele>
        <time>2013-10-01T14:12:10Z</time>
      </trkpt>
      <trkpt lat="43.399704" lon="1.090919">
        <ele>297.5</ele>
        <time>2013-10-01T14:12:18Z</time>
      </trkpt>
      <trkpt lat="43.399672" lon="1.091042">
        <ele>297.0</ele>
        <time>2013-10-01T14:12:26Z</time>
      </trkpt>
      <trkpt lat="43.399629" lon="1.091167">
        <ele>296.2</ele>
        <time>2013-10-01T14:12:35Z</time>
      </trkpt>
      <trkpt lat="43.399575" lon="1.091293">
        <ele>295.7</ele>
        <time>2013-10-01T14:12:44Z</time>
      </trkpt>
      <trkpt lat="43.399525" lon="1.091421">
        <ele>295.2</ele>
        <time>2013-10-01T14:12:52Z</time>
      </trkpt>
      <trkpt lat="43.399485" lon="1.091550">
        <ele>294.9</ele>
        <time>2013-10-01T14:12:57Z</time>
      </trkpt>
      <trkpt lat="43.399444" lon="1.091690">
        <ele>294.5</ele>
        <time>2013-10-01T14:13:02Z</time>
      </trkpt>
      <trkpt lat="43.399398" lon="1.091813">
        <ele>294.0</ele>
        <time>2013-10-01T14:13:06Z</time>
      </trkpt>
      <trkpt lat="43.399346" lon="1.091946">
        <ele>293.6</ele>
        <time>2013-10-01T14:13:10Z</time>
      </trkpt>
      <trkpt lat="43.399283" lon="1.092137">
        <ele>293.1</ele>
        <time>2013-10-01T14:13:15Z</time>
      </trkpt>
      <trkpt lat="43.399231" lon="1.092271">
        <ele>292.9</ele>
        <time>2013-10-01T14:13:19Z</time>
      </trkpt>
      <trkpt lat="43.399180" lon="1.092406">
        <ele>292.8</ele>
        <time>2013-10-01T14:13:23Z</time>
      </trkpt>
      <trkpt lat="43.399119" lon="1.092518">
        <ele>292.6</ele>
        <time>2013-10-01T14:13:27Z</time>
      </trkpt>
      <trkpt lat="43.399052" lon="1.092651">
        <ele>292.5</ele>
        <time>2013-10-01T14:13:31Z</time>
      </trkpt>
      <trkpt lat="43.398991" lon="1.092766">
        <ele>292.4</ele>
        <time>2013-10-01T14:13:35Z</time>
      </trkpt>
      <trkpt lat="43.398940" lon="1.092894">
        <ele>292.3</ele>
        <time>2013-10-01T14:13:39Z</time>
      </trkpt>
      <trkpt lat="43.398886" lon="1.093011">
        <ele>292.1</ele>
        <time>2013-10-01T14:13:43Z</time>
      </trkpt>
      <trkpt lat="43.398834" lon="1.093153">
        <ele>291.9</ele>
        <time>2013-10-01T14:13:47Z</time>
      </trkpt>
      <trkpt lat="43.398758" lon="1.093291">
        <ele>291.8</ele>
        <time>2013-10-01T14:13:51Z</time>
      </trkpt>
      <trkpt lat="43.398696" lon="1.093428">
        <ele>291.6</ele>
        <time>2013-10-01T14:13:55Z</time>
      </trkpt>
      <trkpt lat="43.398648" lon="1.093566">
        <ele>291.4</ele>
        <time>2013-10-01T14:13:59Z</time>
      </trkpt>
      <trkpt lat="43.398594" lon="1.093716">
        <ele>291.4</ele>
        <time>2013-10-01T14:14:03Z</time>
      </trkpt>
      <trkpt lat="43.398554" lon="1.093839">
        <ele>291.4</ele>
        <time>2013-10-01T14:14:07Z</time>
      </trkpt>
      <trkpt lat="43.398490" lon="1.093976">
        <ele>291.4</ele>
        <time>2013-10-01T14:14:12Z</time>
      </trkpt>
      <trkpt lat="43.398420" lon="1.094087">
        <ele>291.3</ele>
        <time>2013-10-01T14:14:16Z</time>
      </trkpt>
      <trkpt lat="43.398396" lon="1.094245">
        <ele>291.2</ele>
        <time>2013-10-01T14:14:21Z</time>
      </trkpt>
      <trkpt lat="43.398347" lon="1.094396">
        <ele>291.0</ele>
        <time>2013-10-01T14:14:25Z</time>
      </trkpt>
      <trkpt lat="43.398298" lon="1.094556">
        <ele>291.1</ele>
        <time>2013-10-01T14:14:29Z</time>
      </trkpt>
      <trkpt lat="43.398258" lon="1.094692">
        <ele>291.3</ele>
        <time>2013-10-01T14:14:33Z</time>
      </trkpt>
      <trkpt lat="43.398245" lon="1.094871">
        <ele>291.3</ele>
        <time>2013-10-01T14:14:38Z</time>
      </trkpt>
      <trkpt lat="43.398249" lon="1.095068">
        <ele>291.4</ele>
        <time>2013-10-01T14:14:43Z</time>
      </trkpt>
      <trkpt lat="43.398213" lon="1.095276">
        <ele>291.5</ele>
        <time>2013-10-01T14:14:48Z</time>
      </trkpt>
      <trkpt lat="43.398190" lon="1.095452">
        <ele>291.4</ele>
        <time>2013-10-01T14:14:53Z</time>
      </trkpt>
      <trkpt lat="43.398175" lon="1.095631">
        <ele>291.4</ele>
        <time>2013-10-01T14:14:57Z</time>
      </trkpt>
      <trkpt lat="43.398169" lon="1.095801">
        <ele>291.3</ele>
        <time>2013-10-01T14:15:01Z</time>
      </trkpt>
      <trkpt lat="43.398147" lon="1.095993">
        <ele>291.1</ele>
        <time>2013-10-01T14:15:06Z</time>
      </trkpt>
      <trkpt lat="43.398094" lon="1.096164">
        <ele>290.9</ele>
        <time>2013-10-01T14:15:10Z</time>
      </trkpt>
      <trkpt lat="43.398027" lon="1.096318">
        <ele>290.7</ele>
        <time>2013-10-01T14:15:14Z</time>
      </trkpt>
      <trkpt lat="43.397928" lon="1.096499">
        <ele>290.6</ele>
        <time>2013-10-01T14:15:18Z</time>
      </trkpt>
      <trkpt lat="43.397870" lon="1.096656">
        <ele>290.5</ele>
        <time>2013-10-01T14:15:22Z</time>
      </trkpt>
      <trkpt lat="43.397806" lon="1.096798">
        <ele>290.3</ele>
        <time>2013-10-01T14:15:26Z</time>
      </trkpt>
      <trkpt lat="43.397740" lon="1.096932">
        <ele>290.1</ele>
        <time>2013-10-01T14:15:30Z</time>
      </trkpt>
      <trkpt lat="43.397692" lon="1.097074">
        <ele>290.0</ele>
        <time>2013-10-01T14:15:34Z</time>
      </trkpt>
      <trkpt lat="43.397638" lon="1.097213">
        <ele>289.9</ele>
        <time>2013-10-01T14:15:38Z</time>
      </trkpt>
      <trkpt lat="43.397589" lon="1.097377">
        <ele>289.8</ele>
        <time>2013-10-01T14:15:42Z</time>
      </trkpt>
      <trkpt lat="43.397543" lon="1.097550">
        <ele>289.7</ele>
        <time>2013-10-01T14:15:46Z</time>
      </trkpt>
      <trkpt lat="43.397481" lon="1.097696">
        <ele>289.5</ele>
        <time>2013-10-01T14:15:50Z</time>
      </trkpt>
      <trkpt lat="43.397425" lon="1.097852">
        <ele>289.3</ele>
        <time>2013-10-01T14:15:54Z</time>
      </trkpt>
      <trkpt lat="43.397380" lon="1.098013">
        <ele>289.0</ele>
        <time>2013-10-01T14:15:58Z</time>
      </trkpt>
      <trkpt lat="43.397343" lon="1.098169">
        <ele>288.8</ele>
        <time>2013-10-01T14:16:02Z</time>
      </trkpt>
      <trkpt lat="43.397304" lon="1.098310">
        <ele>288.6</ele>
        <time>2013-10-01T14:16:06Z</time>
      </trkpt>
      <trkpt lat="43.397245" lon="1.098457">
        <ele>288.4</ele>
        <time>2013-10-01T14:16:10Z</time>
      </trkpt>
      <trkpt lat="43.397176" lon="1.098592">
        <ele>288.0</ele>
        <time>2013-10-01T14:16:14Z</time>
      </trkpt>
      <trkpt lat="43.397108" lon="1.098713">
        <ele>287.7</ele>
        <time>2013-10-01T14:16:18Z</time>
      </trkpt>
      <trkpt lat="43.397151" lon="1.098899">
        <ele>287.3</ele>
        <time>2013-10-01T14:16:23Z</time>
        <name>Bif. GR86</name>
      </trkpt>
      <trkpt lat="43.397210" lon="1.099064">
        <ele>287.2</ele>
        <time>2013-10-01T14:16:28Z</time>
      </trkpt>
      <trkpt lat="43.397261" lon="1.099390">
        <ele>287.6</ele>
        <time>2013-10-01T16:06:36Z</time>
      </trkpt>
      <trkpt lat="43.397333" lon="1.099462">
        <ele>288.9</ele>
        <time>2013-10-01T16:06:45Z</time>
      </trkpt>
      <trkpt lat="43.397380" lon="1.099562">
        <ele>289.4</ele>
        <time>2013-10-01T16:06:51Z</time>
      </trkpt>
      <trkpt lat="43.397410" lon="1.099675">
        <ele>290.1</ele>
        <time>2013-10-01T16:06:59Z</time>
      </trkpt>
      <trkpt lat="43.397508" lon="1.099764">
        <ele>290.7</ele>
        <time>2013-10-01T16:07:10Z</time>
      </trkpt>
      <trkpt lat="43.397640" lon="1.099856">
        <ele>291.0</ele>
        <time>2013-10-01T16:07:20Z</time>
      </trkpt>
      <trkpt lat="43.397759" lon="1.099939">
        <ele>291.3</ele>
        <time>2013-10-01T16:07:29Z</time>
      </trkpt>
      <trkpt lat="43.397869" lon="1.100002">
        <ele>291.8</ele>
        <time>2013-10-01T16:07:37Z</time>
      </trkpt>
      <trkpt lat="43.397998" lon="1.100078">
        <ele>292.2</ele>
        <time>2013-10-01T16:07:46Z</time>
      </trkpt>
      <trkpt lat="43.398127" lon="1.100143">
        <ele>292.6</ele>
        <time>2013-10-01T16:07:57Z</time>
      </trkpt>
      <trkpt lat="43.398251" lon="1.100205">
        <ele>292.9</ele>
        <time>2013-10-01T16:08:07Z</time>
      </trkpt>
      <trkpt lat="43.398399" lon="1.100277">
        <ele>293.2</ele>
        <time>2013-10-01T16:08:18Z</time>
      </trkpt>
      <trkpt lat="43.398514" lon="1.100323">
        <ele>293.1</ele>
        <time>2013-10-01T16:08:26Z</time>
      </trkpt>
      <trkpt lat="43.398639" lon="1.100392">
        <ele>293.3</ele>
        <time>2013-10-01T16:08:37Z</time>
      </trkpt>
      <trkpt lat="43.398749" lon="1.100469">
        <ele>293.4</ele>
        <time>2013-10-01T16:08:46Z</time>
      </trkpt>
      <trkpt lat="43.398872" lon="1.100544">
        <ele>293.3</ele>
        <time>2013-10-01T16:08:56Z</time>
      </trkpt>
      <trkpt lat="43.398990" lon="1.100619">
        <ele>293.4</ele>
        <time>2013-10-01T16:09:06Z</time>
      </trkpt>
      <trkpt lat="43.399095" lon="1.100692">
        <ele>293.3</ele>
        <time>2013-10-01T16:09:15Z</time>
      </trkpt>
      <trkpt lat="43.399213" lon="1.100782">
        <ele>293.3</ele>
        <time>2013-10-01T16:09:24Z</time>
      </trkpt>
      <trkpt lat="43.399330" lon="1.100883">
        <ele>293.3</ele>
        <time>2013-10-01T16:09:32Z</time>
      </trkpt>
      <trkpt lat="43.399439" lon="1.100932">
        <ele>293.2</ele>
        <time>2013-10-01T16:09:40Z</time>
      </trkpt>
      <trkpt lat="43.399551" lon="1.100993">
        <ele>293.5</ele>
        <time>2013-10-01T16:09:50Z</time>
      </trkpt>
      <trkpt lat="43.399666" lon="1.101046">
        <ele>293.7</ele>
        <time>2013-10-01T16:09:58Z</time>
      </trkpt>
      <trkpt lat="43.399806" lon="1.101100">
        <ele>293.9</ele>
        <time>2013-10-01T16:10:06Z</time>
      </trkpt>
      <trkpt lat="43.399903" lon="1.101149">
        <ele>294.1</ele>
        <time>2013-10-01T16:10:13Z</time>
      </trkpt>
      <trkpt lat="43.399999" lon="1.101186">
        <ele>294.1</ele>
        <time>2013-10-01T16:10:20Z</time>
      </trkpt>
      <trkpt lat="43.400088" lon="1.101216">
        <ele>294.0</ele>
        <time>2013-10-01T16:10:27Z</time>
      </trkpt>
      <trkpt lat="43.400190" lon="1.101256">
        <ele>293.9</ele>
        <time>2013-10-01T16:10:35Z</time>
      </trkpt>
      <trkpt lat="43.400292" lon="1.101279">
        <ele>293.8</ele>
        <time>2013-10-01T16:10:42Z</time>
      </trkpt>
      <trkpt lat="43.400384" lon="1.101310">
        <ele>293.8</ele>
        <time>2013-10-01T16:10:49Z</time>
      </trkpt>
      <trkpt lat="43.400483" lon="1.101339">
        <ele>293.6</ele>
        <time>2013-10-01T16:10:56Z</time>
      </trkpt>
      <trkpt lat="43.400585" lon="1.101347">
        <ele>293.6</ele>
        <time>2013-10-01T16:11:03Z</time>
      </trkpt>
      <trkpt lat="43.400679" lon="1.101351">
        <ele>293.4</ele>
        <time>2013-10-01T16:11:10Z</time>
      </trkpt>
      <trkpt lat="43.400772" lon="1.101362">
        <ele>293.3</ele>
        <time>2013-10-01T16:11:17Z</time>
      </trkpt>
      <trkpt lat="43.400867" lon="1.101380">
        <ele>293.3</ele>
        <time>2013-10-01T16:11:24Z</time>
      </trkpt>
      <trkpt lat="43.400965" lon="1.101377">
        <ele>293.1</ele>
        <time>2013-10-01T16:11:31Z</time>
      </trkpt>
      <trkpt lat="43.401066" lon="1.101366">
        <ele>293.4</ele>
        <time>2013-10-01T16:11:38Z</time>
      </trkpt>
      <trkpt lat="43.401156" lon="1.101363">
        <ele>293.4</ele>
        <time>2013-10-01T16:11:44Z</time>
      </trkpt>
      <trkpt lat="43.401272" lon="1.101368">
        <ele>293.2</ele>
        <time>2013-10-01T16:11:50Z</time>
      </trkpt>
      <trkpt lat="43.401375" lon="1.101362">
        <ele>293.2</ele>
        <time>2013-10-01T16:11:54Z</time>
      </trkpt>
      <trkpt lat="43.401476" lon="1.101365">
        <ele>293.2</ele>
        <time>2013-10-01T16:11:58Z</time>
      </trkpt>
      <trkpt lat="43.401586" lon="1.101362">
        <ele>293.3</ele>
        <time>2013-10-01T16:12:02Z</time>
      </trkpt>
      <trkpt lat="43.401691" lon="1.101361">
        <ele>293.4</ele>
        <time>2013-10-01T16:12:06Z</time>
      </trkpt>
      <trkpt lat="43.401801" lon="1.101376">
        <ele>293.4</ele>
        <time>2013-10-01T16:12:10Z</time>
      </trkpt>
      <trkpt lat="43.401914" lon="1.101360">
        <ele>293.4</ele>
        <time>2013-10-01T16:12:14Z</time>
      </trkpt>
      <trkpt lat="43.402025" lon="1.101374">
        <ele>293.5</ele>
        <time>2013-10-01T16:12:18Z</time>
      </trkpt>
      <trkpt lat="43.402135" lon="1.101380">
        <ele>293.5</ele>
        <time>2013-10-01T16:12:22Z</time>
      </trkpt>
      <trkpt lat="43.402228" lon="1.101389">
        <ele>293.5</ele>
        <time>2013-10-01T16:12:26Z</time>
      </trkpt>
      <trkpt lat="43.402314" lon="1.101396">
        <ele>293.5</ele>
        <time>2013-10-01T16:12:30Z</time>
      </trkpt>
      <trkpt lat="43.402424" lon="1.101438">
        <ele>293.4</ele>
        <time>2013-10-01T16:12:35Z</time>
      </trkpt>
      <trkpt lat="43.402505" lon="1.101463">
        <ele>293.2</ele>
        <time>2013-10-01T16:12:40Z</time>
      </trkpt>
      <trkpt lat="43.402621" lon="1.101474">
        <ele>293.0</ele>
        <time>2013-10-01T16:12:45Z</time>
      </trkpt>
      <trkpt lat="43.402751" lon="1.101484">
        <ele>293.1</ele>
        <time>2013-10-01T16:12:50Z</time>
      </trkpt>
      <trkpt lat="43.402871" lon="1.101461">
        <ele>293.4</ele>
        <time>2013-10-01T16:12:55Z</time>
      </trkpt>
      <trkpt lat="43.402989" lon="1.101444">
        <ele>293.5</ele>
        <time>2013-10-01T16:13:00Z</time>
      </trkpt>
      <trkpt lat="43.403100" lon="1.101449">
        <ele>293.5</ele>
        <time>2013-10-01T16:13:05Z</time>
      </trkpt>
      <trkpt lat="43.403216" lon="1.101441">
        <ele>293.7</ele>
        <time>2013-10-01T16:13:10Z</time>
      </trkpt>
      <trkpt lat="43.403311" lon="1.101435">
        <ele>293.6</ele>
        <time>2013-10-01T16:13:14Z</time>
      </trkpt>
      <trkpt lat="43.403404" lon="1.101447">
        <ele>293.4</ele>
        <time>2013-10-01T16:13:18Z</time>
      </trkpt>
      <trkpt lat="43.403503" lon="1.101447">
        <ele>293.3</ele>
        <time>2013-10-01T16:13:22Z</time>
      </trkpt>
      <trkpt lat="43.403611" lon="1.101446">
        <ele>293.4</ele>
        <time>2013-10-01T16:13:27Z</time>
      </trkpt>
      <trkpt lat="43.403706" lon="1.101438">
        <ele>293.7</ele>
        <time>2013-10-01T16:13:32Z</time>
      </trkpt>
      <trkpt lat="43.403802" lon="1.101458">
        <ele>293.7</ele>
        <time>2013-10-01T16:13:36Z</time>
      </trkpt>
      <trkpt lat="43.403912" lon="1.101470">
        <ele>293.6</ele>
        <time>2013-10-01T16:13:41Z</time>
      </trkpt>
      <trkpt lat="43.403999" lon="1.101478">
        <ele>293.6</ele>
        <time>2013-10-01T16:13:45Z</time>
      </trkpt>
      <trkpt lat="43.404118" lon="1.101474">
        <ele>293.7</ele>
        <time>2013-10-01T16:13:50Z</time>
      </trkpt>
      <trkpt lat="43.404225" lon="1.101487">
        <ele>293.7</ele>
        <time>2013-10-01T16:13:54Z</time>
      </trkpt>
      <trkpt lat="43.404334" lon="1.101523">
        <ele>293.8</ele>
        <time>2013-10-01T16:13:58Z</time>
      </trkpt>
      <trkpt lat="43.404442" lon="1.101545">
        <ele>293.9</ele>
        <time>2013-10-01T16:14:02Z</time>
      </trkpt>
      <trkpt lat="43.404546" lon="1.101575">
        <ele>294.0</ele>
        <time>2013-10-01T16:14:06Z</time>
      </trkpt>
      <trkpt lat="43.404654" lon="1.101565">
        <ele>294.1</ele>
        <time>2013-10-01T16:14:10Z</time>
      </trkpt>
      <trkpt lat="43.404758" lon="1.101560">
        <ele>294.1</ele>
        <time>2013-10-01T16:14:14Z</time>
      </trkpt>
      <trkpt lat="43.404860" lon="1.101584">
        <ele>294.2</ele>
        <time>2013-10-01T16:14:18Z</time>
      </trkpt>
      <trkpt lat="43.404963" lon="1.101600">
        <ele>294.3</ele>
        <time>2013-10-01T16:14:22Z</time>
      </trkpt>
      <trkpt lat="43.405062" lon="1.101618">
        <ele>294.2</ele>
        <time>2013-10-01T16:14:26Z</time>
      </trkpt>
      <trkpt lat="43.405150" lon="1.101596">
        <ele>294.4</ele>
        <time>2013-10-01T16:14:30Z</time>
      </trkpt>
      <trkpt lat="43.405265" lon="1.101571">
        <ele>294.4</ele>
        <time>2013-10-01T16:14:35Z</time>
      </trkpt>
      <trkpt lat="43.405375" lon="1.101564">
        <ele>294.5</ele>
        <time>2013-10-01T16:14:39Z</time>
      </trkpt>
      <trkpt lat="43.405470" lon="1.101596">
        <ele>294.6</ele>
        <time>2013-10-01T16:14:43Z</time>
      </trkpt>
      <trkpt lat="43.405574" lon="1.101570">
        <ele>294.8</ele>
        <time>2013-10-01T16:14:49Z</time>
      </trkpt>
      <trkpt lat="43.405688" lon="1.101575">
        <ele>294.8</ele>
        <time>2013-10-01T16:14:56Z</time>
      </trkpt>
      <trkpt lat="43.405774" lon="1.101559">
        <ele>294.7</ele>
        <time>2013-10-01T16:15:03Z</time>
      </trkpt>
      <trkpt lat="43.405869" lon="1.101561">
        <ele>294.8</ele>
        <time>2013-10-01T16:15:11Z</time>
      </trkpt>
      <trkpt lat="43.405971" lon="1.101569">
        <ele>294.8</ele>
        <time>2013-10-01T16:15:19Z</time>
      </trkpt>
      <trkpt lat="43.406185" lon="1.101581">
        <ele>295.1</ele>
        <time>2013-10-01T16:15:34Z</time>
      </trkpt>
      <trkpt lat="43.406318" lon="1.101573">
        <ele>295.1</ele>
        <time>2013-10-01T16:15:41Z</time>
      </trkpt>
      <trkpt lat="43.406422" lon="1.101566">
        <ele>295.1</ele>
        <time>2013-10-01T16:15:49Z</time>
      </trkpt>
      <trkpt lat="43.406522" lon="1.101575">
        <ele>295.0</ele>
        <time>2013-10-01T16:15:55Z</time>
      </trkpt>
      <trkpt lat="43.406626" lon="1.101557">
        <ele>294.9</ele>
        <time>2013-10-01T16:16:02Z</time>
      </trkpt>
      <trkpt lat="43.406723" lon="1.101545">
        <ele>295.0</ele>
        <time>2013-10-01T16:16:08Z</time>
      </trkpt>
      <trkpt lat="43.406811" lon="1.101552">
        <ele>294.7</ele>
        <time>2013-10-01T16:16:15Z</time>
      </trkpt>
      <trkpt lat="43.406903" lon="1.101558">
        <ele>294.8</ele>
        <time>2013-10-01T16:16:21Z</time>
      </trkpt>
      <trkpt lat="43.407012" lon="1.101567">
        <ele>294.8</ele>
        <time>2013-10-01T16:16:28Z</time>
      </trkpt>
      <trkpt lat="43.407111" lon="1.101562">
        <ele>294.8</ele>
        <time>2013-10-01T16:16:35Z</time>
      </trkpt>
      <trkpt lat="43.407201" lon="1.101538">
        <ele>294.9</ele>
        <time>2013-10-01T16:16:42Z</time>
      </trkpt>
      <trkpt lat="43.407294" lon="1.101502">
        <ele>294.8</ele>
        <time>2013-10-01T16:16:50Z</time>
      </trkpt>
      <trkpt lat="43.407383" lon="1.101468">
        <ele>294.4</ele>
        <time>2013-10-01T16:16:57Z</time>
      </trkpt>
      <trkpt lat="43.407474" lon="1.101419">
        <ele>294.1</ele>
        <time>2013-10-01T16:17:05Z</time>
      </trkpt>
      <trkpt lat="43.407565" lon="1.101363">
        <ele>293.7</ele>
        <time>2013-10-01T16:17:13Z</time>
      </trkpt>
      <trkpt lat="43.407652" lon="1.101322">
        <ele>293.2</ele>
        <time>2013-10-01T16:17:21Z</time>
      </trkpt>
      <trkpt lat="43.407749" lon="1.101288">
        <ele>292.5</ele>
        <time>2013-10-01T16:17:29Z</time>
      </trkpt>
      <trkpt lat="43.407847" lon="1.101219">
        <ele>292.1</ele>
        <time>2013-10-01T16:17:38Z</time>
      </trkpt>
      <trkpt lat="43.407937" lon="1.101154">
        <ele>291.9</ele>
        <time>2013-10-01T16:17:46Z</time>
      </trkpt>
      <trkpt lat="43.408040" lon="1.101116">
        <ele>291.5</ele>
        <time>2013-10-01T16:17:54Z</time>
      </trkpt>
      <trkpt lat="43.408137" lon="1.101067">
        <ele>291.1</ele>
        <time>2013-10-01T16:18:02Z</time>
      </trkpt>
      <trkpt lat="43.408226" lon="1.101020">
        <ele>290.8</ele>
        <time>2013-10-01T16:18:09Z</time>
      </trkpt>
      <trkpt lat="43.408316" lon="1.100984">
        <ele>290.3</ele>
        <time>2013-10-01T16:18:16Z</time>
      </trkpt>
      <trkpt lat="43.408412" lon="1.100906">
        <ele>290.0</ele>
        <time>2013-10-01T16:18:24Z</time>
      </trkpt>
      <trkpt lat="43.408503" lon="1.100884">
        <ele>289.8</ele>
        <time>2013-10-01T16:18:30Z</time>
      </trkpt>
      <trkpt lat="43.408580" lon="1.100923">
        <ele>289.6</ele>
        <time>2013-10-01T16:18:39Z</time>
      </trkpt>
      <trkpt lat="43.408655" lon="1.100989">
        <ele>289.8</ele>
        <time>2013-10-01T16:18:47Z</time>
      </trkpt>
      <trkpt lat="43.408743" lon="1.101065">
        <ele>290.2</ele>
        <time>2013-10-01T16:18:55Z</time>
      </trkpt>
      <trkpt lat="43.408806" lon="1.101140">
        <ele>290.8</ele>
        <time>2013-10-01T16:19:03Z</time>
      </trkpt>
      <trkpt lat="43.408895" lon="1.101148">
        <ele>290.9</ele>
        <time>2013-10-01T16:19:51Z</time>
      </trkpt>
      <trkpt lat="43.408921" lon="1.101194">
        <ele>290.3</ele>
        <time>2013-10-01T16:21:48Z</time>
      </trkpt>
      <trkpt lat="43.408972" lon="1.101207">
        <ele>289.9</ele>
        <time>2013-10-01T16:22:36Z</time>
      </trkpt>
      <trkpt lat="43.409061" lon="1.101278">
        <ele>289.9</ele>
        <time>2013-10-01T16:22:46Z</time>
      </trkpt>
      <trkpt lat="43.409135" lon="1.101378">
        <ele>289.8</ele>
        <time>2013-10-01T16:22:53Z</time>
      </trkpt>
      <trkpt lat="43.409201" lon="1.101470">
        <ele>289.6</ele>
        <time>2013-10-01T16:22:59Z</time>
      </trkpt>
      <trkpt lat="43.409262" lon="1.101555">
        <ele>289.5</ele>
        <time>2013-10-01T16:23:05Z</time>
      </trkpt>
      <trkpt lat="43.409324" lon="1.101659">
        <ele>289.6</ele>
        <time>2013-10-01T16:23:11Z</time>
      </trkpt>
      <trkpt lat="43.409385" lon="1.101753">
        <ele>289.2</ele>
        <time>2013-10-01T16:23:19Z</time>
      </trkpt>
      <trkpt lat="43.409454" lon="1.101868">
        <ele>288.9</ele>
        <time>2013-10-01T16:23:26Z</time>
      </trkpt>
      <trkpt lat="43.409520" lon="1.101972">
        <ele>288.8</ele>
        <time>2013-10-01T16:23:33Z</time>
      </trkpt>
      <trkpt lat="43.409594" lon="1.102096">
        <ele>288.8</ele>
        <time>2013-10-01T16:23:42Z</time>
      </trkpt>
      <trkpt lat="43.409668" lon="1.102207">
        <ele>288.9</ele>
        <time>2013-10-01T16:23:50Z</time>
      </trkpt>
      <trkpt lat="43.409731" lon="1.102328">
        <ele>288.7</ele>
        <time>2013-10-01T16:23:58Z</time>
      </trkpt>
      <trkpt lat="43.409809" lon="1.102448">
        <ele>288.7</ele>
        <time>2013-10-01T16:24:06Z</time>
      </trkpt>
      <trkpt lat="43.409886" lon="1.102557">
        <ele>288.8</ele>
        <time>2013-10-01T16:24:13Z</time>
      </trkpt>
      <trkpt lat="43.409953" lon="1.102664">
        <ele>288.7</ele>
        <time>2013-10-01T16:24:19Z</time>
      </trkpt>
      <trkpt lat="43.410030" lon="1.102765">
        <ele>288.6</ele>
        <time>2013-10-01T16:24:26Z</time>
      </trkpt>
      <trkpt lat="43.410111" lon="1.102889">
        <ele>288.2</ele>
        <time>2013-10-01T16:24:33Z</time>
      </trkpt>
      <trkpt lat="43.410185" lon="1.103016">
        <ele>288.2</ele>
        <time>2013-10-01T16:24:39Z</time>
      </trkpt>
      <trkpt lat="43.410249" lon="1.103131">
        <ele>287.8</ele>
        <time>2013-10-01T16:24:45Z</time>
      </trkpt>
      <trkpt lat="43.410306" lon="1.103247">
        <ele>287.4</ele>
        <time>2013-10-01T16:24:52Z</time>
      </trkpt>
      <trkpt lat="43.410350" lon="1.103365">
        <ele>287.2</ele>
        <time>2013-10-01T16:24:59Z</time>
      </trkpt>
      <trkpt lat="43.410412" lon="1.103498">
        <ele>287.1</ele>
        <time>2013-10-01T16:25:06Z</time>
      </trkpt>
      <trkpt lat="43.410468" lon="1.103629">
        <ele>286.8</ele>
        <time>2013-10-01T16:25:13Z</time>
      </trkpt>
      <trkpt lat="43.410523" lon="1.103752">
        <ele>286.5</ele>
        <time>2013-10-01T16:25:20Z</time>
      </trkpt>
      <trkpt lat="43.410561" lon="1.103877">
        <ele>286.1</ele>
        <time>2013-10-01T16:25:27Z</time>
      </trkpt>
      <trkpt lat="43.410611" lon="1.104019">
        <ele>285.6</ele>
        <time>2013-10-01T16:25:34Z</time>
      </trkpt>
      <trkpt lat="43.410659" lon="1.104151">
        <ele>285.0</ele>
        <time>2013-10-01T16:25:41Z</time>
      </trkpt>
      <trkpt lat="43.410749" lon="1.104192">
        <ele>283.6</ele>
        <time>2013-10-01T16:26:12Z</time>
      </trkpt>
      <trkpt lat="43.410844" lon="1.104197">
        <ele>283.4</ele>
        <time>2013-10-01T16:26:20Z</time>
      </trkpt>
      <trkpt lat="43.410909" lon="1.104293">
        <ele>283.6</ele>
        <time>2013-10-01T16:26:28Z</time>
      </trkpt>
      <trkpt lat="43.410990" lon="1.104392">
        <ele>284.1</ele>
        <time>2013-10-01T16:26:36Z</time>
      </trkpt>
      <trkpt lat="43.411084" lon="1.104466">
        <ele>284.5</ele>
        <time>2013-10-01T16:26:44Z</time>
      </trkpt>
      <trkpt lat="43.411183" lon="1.104527">
        <ele>284.9</ele>
        <time>2013-10-01T16:26:52Z</time>
      </trkpt>
      <trkpt lat="43.411281" lon="1.104598">
        <ele>285.1</ele>
        <time>2013-10-01T16:26:59Z</time>
      </trkpt>
      <trkpt lat="43.411376" lon="1.104653">
        <ele>285.5</ele>
        <time>2013-10-01T16:27:06Z</time>
      </trkpt>
      <trkpt lat="43.411468" lon="1.104745">
        <ele>286.2</ele>
        <time>2013-10-01T16:27:13Z</time>
      </trkpt>
      <trkpt lat="43.411545" lon="1.104830">
        <ele>286.7</ele>
        <time>2013-10-01T16:27:21Z</time>
      </trkpt>
      <trkpt lat="43.411616" lon="1.104882">
        <ele>286.8</ele>
        <time>2013-10-01T16:27:37Z</time>
      </trkpt>
      <trkpt lat="43.411693" lon="1.104996">
        <ele>286.8</ele>
        <time>2013-10-01T16:27:45Z</time>
      </trkpt>
      <trkpt lat="43.411755" lon="1.105095">
        <ele>286.8</ele>
        <time>2013-10-01T16:27:51Z</time>
      </trkpt>
      <trkpt lat="43.411805" lon="1.105213">
        <ele>286.6</ele>
        <time>2013-10-01T16:27:58Z</time>
      </trkpt>
      <trkpt lat="43.411849" lon="1.105327">
        <ele>286.5</ele>
        <time>2013-10-01T16:28:04Z</time>
      </trkpt>
      <trkpt lat="43.411891" lon="1.105452">
        <ele>286.4</ele>
        <time>2013-10-01T16:28:11Z</time>
      </trkpt>
      <trkpt lat="43.411934" lon="1.105581">
        <ele>286.5</ele>
        <time>2013-10-01T16:28:18Z</time>
      </trkpt>
      <trkpt lat="43.411981" lon="1.105701">
        <ele>286.4</ele>
        <time>2013-10-01T16:28:24Z</time>
      </trkpt>
      <trkpt lat="43.412023" lon="1.105825">
        <ele>286.4</ele>
        <time>2013-10-01T16:28:31Z</time>
      </trkpt>
      <trkpt lat="43.412065" lon="1.105946">
        <ele>286.3</ele>
        <time>2013-10-01T16:28:37Z</time>
      </trkpt>
      <trkpt lat="43.412088" lon="1.106048">
        <ele>286.3</ele>
        <time>2013-10-01T16:28:44Z</time>
      </trkpt>
      <trkpt lat="43.412125" lon="1.106166">
        <ele>286.3</ele>
        <time>2013-10-01T16:28:51Z</time>
      </trkpt>
      <trkpt lat="43.412166" lon="1.106280">
        <ele>286.3</ele>
        <time>2013-10-01T16:28:57Z</time>
      </trkpt>
      <trkpt lat="43.412196" lon="1.106403">
        <ele>286.3</ele>
        <time>2013-10-01T16:29:04Z</time>
      </trkpt>
      <trkpt lat="43.412236" lon="1.106526">
        <ele>286.2</ele>
        <time>2013-10-01T16:29:11Z</time>
      </trkpt>
      <trkpt lat="43.412278" lon="1.106661">
        <ele>286.2</ele>
        <time>2013-10-01T16:29:18Z</time>
      </trkpt>
      <trkpt lat="43.412309" lon="1.106781">
        <ele>286.1</ele>
        <time>2013-10-01T16:29:24Z</time>
      </trkpt>
      <trkpt lat="43.412341" lon="1.106912">
        <ele>285.8</ele>
        <time>2013-10-01T16:29:31Z</time>
      </trkpt>
      <trkpt lat="43.412365" lon="1.107050">
        <ele>285.6</ele>
        <time>2013-10-01T16:29:38Z</time>
      </trkpt>
      <trkpt lat="43.412395" lon="1.107194">
        <ele>285.7</ele>
        <time>2013-10-01T16:29:45Z</time>
      </trkpt>
      <trkpt lat="43.412425" lon="1.107323">
        <ele>285.5</ele>
        <time>2013-10-01T16:29:51Z</time>
      </trkpt>
      <trkpt lat="43.412452" lon="1.107448">
        <ele>285.4</ele>
        <time>2013-10-01T16:29:57Z</time>
      </trkpt>
      <trkpt lat="43.412478" lon="1.107562">
        <ele>285.1</ele>
        <time>2013-10-01T16:30:03Z</time>
      </trkpt>
      <trkpt lat="43.412497" lon="1.107672">
        <ele>285.0</ele>
        <time>2013-10-01T16:30:09Z</time>
      </trkpt>
      <trkpt lat="43.412521" lon="1.107792">
        <ele>284.9</ele>
        <time>2013-10-01T16:30:16Z</time>
      </trkpt>
      <trkpt lat="43.412540" lon="1.107928">
        <ele>284.8</ele>
        <time>2013-10-01T16:30:23Z</time>
      </trkpt>
      <trkpt lat="43.412548" lon="1.108064">
        <ele>284.6</ele>
        <time>2013-10-01T16:30:31Z</time>
      </trkpt>
      <trkpt lat="43.412574" lon="1.108201">
        <ele>283.8</ele>
        <time>2013-10-01T16:30:39Z</time>
      </trkpt>
      <trkpt lat="43.412580" lon="1.108351">
        <ele>282.7</ele>
        <time>2013-10-01T16:30:47Z</time>
      </trkpt>
      <trkpt lat="43.412585" lon="1.108478">
        <ele>281.4</ele>
        <time>2013-10-01T16:30:54Z</time>
      </trkpt>
      <trkpt lat="43.412594" lon="1.108629">
        <ele>280.2</ele>
        <time>2013-10-01T16:31:04Z</time>
      </trkpt>
      <trkpt lat="43.412613" lon="1.108772">
        <ele>279.8</ele>
        <time>2013-10-01T16:31:12Z</time>
      </trkpt>
      <trkpt lat="43.412632" lon="1.108908">
        <ele>279.3</ele>
        <time>2013-10-01T16:31:19Z</time>
      </trkpt>
      <trkpt lat="43.412642" lon="1.109055">
        <ele>278.2</ele>
        <time>2013-10-01T16:31:29Z</time>
      </trkpt>
      <trkpt lat="43.412700" lon="1.109234">
        <ele>277.6</ele>
        <time>2013-10-01T16:31:37Z</time>
      </trkpt>
      <trkpt lat="43.412773" lon="1.109345">
        <ele>277.5</ele>
        <time>2013-10-01T16:31:44Z</time>
      </trkpt>
      <trkpt lat="43.412866" lon="1.109426">
        <ele>277.6</ele>
        <time>2013-10-01T16:31:51Z</time>
      </trkpt>
      <trkpt lat="43.412956" lon="1.109492">
        <ele>278.5</ele>
        <time>2013-10-01T16:31:59Z</time>
      </trkpt>
      <trkpt lat="43.413060" lon="1.109544">
        <ele>279.5</ele>
        <time>2013-10-01T16:32:08Z</time>
      </trkpt>
      <trkpt lat="43.413150" lon="1.109615">
        <ele>280.3</ele>
        <time>2013-10-01T16:32:15Z</time>
      </trkpt>
      <trkpt lat="43.413253" lon="1.109712">
        <ele>281.3</ele>
        <time>2013-10-01T16:32:23Z</time>
      </trkpt>
      <trkpt lat="43.413336" lon="1.109820">
        <ele>282.0</ele>
        <time>2013-10-01T16:32:31Z</time>
      </trkpt>
      <trkpt lat="43.413399" lon="1.109948">
        <ele>282.1</ele>
        <time>2013-10-01T16:32:37Z</time>
      </trkpt>
      <trkpt lat="43.413450" lon="1.110084">
        <ele>282.3</ele>
        <time>2013-10-01T16:32:44Z</time>
      </trkpt>
      <trkpt lat="43.413463" lon="1.110214">
        <ele>282.3</ele>
        <time>2013-10-01T16:32:50Z</time>
      </trkpt>
      <trkpt lat="43.413486" lon="1.110348">
        <ele>282.3</ele>
        <time>2013-10-01T16:32:57Z</time>
      </trkpt>
      <trkpt lat="43.413499" lon="1.110498">
        <ele>281.2</ele>
        <time>2013-10-01T16:33:05Z</time>
      </trkpt>
      <trkpt lat="43.413509" lon="1.110641">
        <ele>279.9</ele>
        <time>2013-10-01T16:33:12Z</time>
      </trkpt>
      <trkpt lat="43.413526" lon="1.110773">
        <ele>279.3</ele>
        <time>2013-10-01T16:33:19Z</time>
      </trkpt>
      <trkpt lat="43.413548" lon="1.110910">
        <ele>279.4</ele>
        <time>2013-10-01T16:33:27Z</time>
      </trkpt>
      <trkpt lat="43.413575" lon="1.111032">
        <ele>279.9</ele>
        <time>2013-10-01T16:33:34Z</time>
      </trkpt>
      <trkpt lat="43.413603" lon="1.111168">
        <ele>280.0</ele>
        <time>2013-10-01T16:33:43Z</time>
      </trkpt>
      <trkpt lat="43.413626" lon="1.111300">
        <ele>280.4</ele>
        <time>2013-10-01T16:33:50Z</time>
      </trkpt>
      <trkpt lat="43.413652" lon="1.111424">
        <ele>280.6</ele>
        <time>2013-10-01T16:33:57Z</time>
      </trkpt>
      <trkpt lat="43.413680" lon="1.111544">
        <ele>280.6</ele>
        <time>2013-10-01T16:34:03Z</time>
      </trkpt>
      <trkpt lat="43.413715" lon="1.111666">
        <ele>280.6</ele>
        <time>2013-10-01T16:34:09Z</time>
      </trkpt>
      <trkpt lat="43.413750" lon="1.111783">
        <ele>280.6</ele>
        <time>2013-10-01T16:34:15Z</time>
      </trkpt>
      <trkpt lat="43.413775" lon="1.111879">
        <ele>280.6</ele>
        <time>2013-10-01T16:34:21Z</time>
      </trkpt>
      <trkpt lat="43.413792" lon="1.111995">
        <ele>280.6</ele>
        <time>2013-10-01T16:34:28Z</time>
      </trkpt>
      <trkpt lat="43.413818" lon="1.112115">
        <ele>280.6</ele>
        <time>2013-10-01T16:34:35Z</time>
      </trkpt>
      <trkpt lat="43.413839" lon="1.112231">
        <ele>280.5</ele>
        <time>2013-10-01T16:34:42Z</time>
      </trkpt>
      <trkpt lat="43.413854" lon="1.112361">
        <ele>280.7</ele>
        <time>2013-10-01T16:34:49Z</time>
      </trkpt>
      <trkpt lat="43.413879" lon="1.112477">
        <ele>280.9</ele>
        <time>2013-10-01T16:34:56Z</time>
      </trkpt>
      <trkpt lat="43.413898" lon="1.112610">
        <ele>280.7</ele>
        <time>2013-10-01T16:35:04Z</time>
      </trkpt>
      <trkpt lat="43.413921" lon="1.112760">
        <ele>280.9</ele>
        <time>2013-10-01T16:35:12Z</time>
      </trkpt>
      <trkpt lat="43.413951" lon="1.112872">
        <ele>280.8</ele>
        <time>2013-10-01T16:35:19Z</time>
      </trkpt>
      <trkpt lat="43.413967" lon="1.112991">
        <ele>281.0</ele>
        <time>2013-10-01T16:35:27Z</time>
      </trkpt>
      <trkpt lat="43.413968" lon="1.113153">
        <ele>281.4</ele>
        <time>2013-10-01T16:35:35Z</time>
      </trkpt>
      <trkpt lat="43.413976" lon="1.113298">
        <ele>281.5</ele>
        <time>2013-10-01T16:35:42Z</time>
      </trkpt>
      <trkpt lat="43.413958" lon="1.113425">
        <ele>281.5</ele>
        <time>2013-10-01T16:35:49Z</time>
      </trkpt>
      <trkpt lat="43.413974" lon="1.113572">
        <ele>281.3</ele>
        <time>2013-10-01T16:35:57Z</time>
      </trkpt>
      <trkpt lat="43.413983" lon="1.113711">
        <ele>281.5</ele>
        <time>2013-10-01T16:36:04Z</time>
      </trkpt>
      <trkpt lat="43.413990" lon="1.113871">
        <ele>281.4</ele>
        <time>2013-10-01T16:36:11Z</time>
      </trkpt>
      <trkpt lat="43.414003" lon="1.114040">
        <ele>281.1</ele>
        <time>2013-10-01T16:36:19Z</time>
      </trkpt>
      <trkpt lat="43.413999" lon="1.114171">
        <ele>280.7</ele>
        <time>2013-10-01T16:36:27Z</time>
      </trkpt>
      <trkpt lat="43.414000" lon="1.114296">
        <ele>280.3</ele>
        <time>2013-10-01T16:36:35Z</time>
      </trkpt>
      <trkpt lat="43.413986" lon="1.114454">
        <ele>279.7</ele>
        <time>2013-10-01T16:36:43Z</time>
      </trkpt>
      <trkpt lat="43.413974" lon="1.114583">
        <ele>279.1</ele>
        <time>2013-10-01T16:36:50Z</time>
      </trkpt>
      <trkpt lat="43.413971" lon="1.114720">
        <ele>278.5</ele>
        <time>2013-10-01T16:36:57Z</time>
      </trkpt>
      <trkpt lat="43.413928" lon="1.114847">
        <ele>278.2</ele>
        <time>2013-10-01T16:37:05Z</time>
      </trkpt>
      <trkpt lat="43.413875" lon="1.114966">
        <ele>278.0</ele>
        <time>2013-10-01T16:37:13Z</time>
      </trkpt>
      <trkpt lat="43.413821" lon="1.115105">
        <ele>277.8</ele>
        <time>2013-10-01T16:37:22Z</time>
      </trkpt>
      <trkpt lat="43.413777" lon="1.115267">
        <ele>277.6</ele>
        <time>2013-10-01T16:37:30Z</time>
      </trkpt>
      <trkpt lat="43.413736" lon="1.115401">
        <ele>277.5</ele>
        <time>2013-10-01T16:37:38Z</time>
      </trkpt>
      <trkpt lat="43.413700" lon="1.115515">
        <ele>277.5</ele>
        <time>2013-10-01T16:37:45Z</time>
      </trkpt>
      <trkpt lat="43.413670" lon="1.115649">
        <ele>277.5</ele>
        <time>2013-10-01T16:37:53Z</time>
      </trkpt>
      <trkpt lat="43.413641" lon="1.115782">
        <ele>277.6</ele>
        <time>2013-10-01T16:38:00Z</time>
      </trkpt>
      <trkpt lat="43.413624" lon="1.115940">
        <ele>277.9</ele>
        <time>2013-10-01T16:38:08Z</time>
      </trkpt>
      <trkpt lat="43.413615" lon="1.116069">
        <ele>278.5</ele>
        <time>2013-10-01T16:38:15Z</time>
      </trkpt>
      <trkpt lat="43.413582" lon="1.116201">
        <ele>278.9</ele>
        <time>2013-10-01T16:38:22Z</time>
      </trkpt>
      <trkpt lat="43.413587" lon="1.116355">
        <ele>279.3</ele>
        <time>2013-10-01T16:38:30Z</time>
      </trkpt>
      <trkpt lat="43.413581" lon="1.116512">
        <ele>279.7</ele>
        <time>2013-10-01T16:38:38Z</time>
      </trkpt>
      <trkpt lat="43.413580" lon="1.116661">
        <ele>279.8</ele>
        <time>2013-10-01T16:38:46Z</time>
      </trkpt>
      <trkpt lat="43.413588" lon="1.116813">
        <ele>280.4</ele>
        <time>2013-10-01T16:38:54Z</time>
      </trkpt>
      <trkpt lat="43.413580" lon="1.116945">
        <ele>280.7</ele>
        <time>2013-10-01T16:39:01Z</time>
      </trkpt>
      <trkpt lat="43.413524" lon="1.117054">
        <ele>281.2</ele>
        <time>2013-10-01T16:39:10Z</time>
      </trkpt>
      <trkpt lat="43.413434" lon="1.117152">
        <ele>281.8</ele>
        <time>2013-10-01T16:39:18Z</time>
      </trkpt>
      <trkpt lat="43.413330" lon="1.117204">
        <ele>282.1</ele>
        <time>2013-10-01T16:39:25Z</time>
      </trkpt>
      <trkpt lat="43.413239" lon="1.117255">
        <ele>282.2</ele>
        <time>2013-10-01T16:39:32Z</time>
      </trkpt>
      <trkpt lat="43.413151" lon="1.117310">
        <ele>282.3</ele>
        <time>2013-10-01T16:39:39Z</time>
      </trkpt>
      <trkpt lat="43.413059" lon="1.117373">
        <ele>282.3</ele>
        <time>2013-10-01T16:39:46Z</time>
      </trkpt>
      <trkpt lat="43.412969" lon="1.117418">
        <ele>282.3</ele>
        <time>2013-10-01T16:39:53Z</time>
      </trkpt>
      <trkpt lat="43.412870" lon="1.117454">
        <ele>296.8</ele>
        <time>2013-10-01T16:41:28Z</time>
      </trkpt>
    </trkseg>
  </trk>
</gpx>

